Observation data for Dell City 1N on 05/24/2019      Previous  Date       Current Mesonet Observations  Soil Data  Daily Summary Page  Observations in Plain Language
KDC1 240500Z 33005KT 16/01 A2996 RMK A01 T01620006  RH  035%=      5-min Rain = 0
KDC1 240501Z 34005KT 17/M00 A2996 RMK A01 T01661001  RH  032%=      5-min Rain = 0
KDC1 240502Z 34005KT 17/M01 A2996 RMK A01 T01701005  RH  031%=      5-min Rain = 0
KDC1 240503Z 34005KT 17/M01 A2996 RMK A01 T01731007  RH  030%=      5-min Rain = 0
KDC1 240504Z 33005KT 18/M01 A2996 RMK A01 T01751009  RH  029%=      5-min Rain = 0
KDC1 240505Z 32005KT 18/M02 A2996 RMK A01 T01781015  RH  027%=      5-min Rain = 0
KDC1 240506Z 31004KT 18/00 A2996 RMK A01 T01800000  RH  030%=      5-min Rain = 0
KDC1 240507Z 32005KT 18/01 A2996 RMK A01 T01770013  RH  033%=      5-min Rain = 0
KDC1 240508Z 32005KT 17/01 A2996 RMK A01 T01730011  RH  034%=      5-min Rain = 0
KDC1 240509Z 31005KT 17/01 A2996 RMK A01 T01710010  RH  034%=      5-min Rain = 0
KDC1 240510Z 31005KT 17/01 A2996 RMK A01 T01690012  RH  035%=      5-min Rain = 0
KDC1 240511Z 30006KT 17/01 A2996 RMK A01 T01680010  RH  034%=      5-min Rain = 0
KDC1 240512Z 30006KT 17/01 A2996 RMK A01 T01680008  RH  034%=      5-min Rain = 0
KDC1 240513Z 29007KT 17/01 A2996 RMK A01 T01670013  RH  035%=      5-min Rain = 0
KDC1 240514Z 29007KT 17/02 A2996 RMK A01 T01650021  RH  038%=      5-min Rain = 0
KDC1 240515Z 29008KT 16/03 A2996 RMK A01 T01610025  RH  040%=      5-min Rain = 0
KDC1 240516Z 29009KT 16/03 A2996 RMK A01 T01580029  RH  042%=      5-min Rain = 0
KDC1 240517Z 29009KT 16/03 A2996 RMK A01 T01550033  RH  044%=      5-min Rain = 0
KDC1 240518Z 29009KT 15/03 A2996 RMK A01 T01540033  RH  044%=      5-min Rain = 0
KDC1 240519Z 30009KT 15/03 A2996 RMK A01 T01540029  RH  043%=      5-min Rain = 0
KDC1 240520Z 30009KT 16/03 A2996 RMK A01 T01550025  RH  041%=      5-min Rain = 0
KDC1 240521Z 30009KT 16/02 A2996 RMK A01 T01570021  RH  040%=      5-min Rain = 0
KDC1 240522Z 30009KT 16/02 A2996 RMK A01 T01590018  RH  039%=      5-min Rain = 0
KDC1 240523Z 30009KT 16/02 A2996 RMK A01 T01600017  RH  038%=      5-min Rain = 0
KDC1 240524Z 30008KT 16/02 A2996 RMK A01 T01610016  RH  037%=      5-min Rain = 0
KDC1 240525Z 30008KT 16/01 A2996 RMK A01 T01610014  RH  037%=      5-min Rain = 0
KDC1 240526Z 30008KT 16/01 A2996 RMK A01 T01610013  RH  037%=      5-min Rain = 0
KDC1 240527Z 30008KT 16/01 A2996 RMK A01 T01610014  RH  037%=      5-min Rain = 0
KDC1 240528Z 29007KT 16/02 A2996 RMK A01 T01600015  RH  037%=      5-min Rain = 0
KDC1 240529Z 29007KT 16/02 A2996 RMK A01 T01590017  RH  038%=      5-min Rain = 0
KDC1 240530Z 29007KT 16/02 A2996 RMK A01 T01570018  RH  039%=      5-min Rain = 0
KDC1 240531Z 29007KT 16/02 A2996 RMK A01 T01550021  RH  040%=      5-min Rain = 0
KDC1 240532Z 29008KT 15/02 A2996 RMK A01 T01530023  RH  041%=      5-min Rain = 0
KDC1 240533Z 29008KT 15/02 A2996 RMK A01 T01510024  RH  042%=      5-min Rain = 0
KDC1 240534Z 29008KT 15/03 A2996 RMK A01 T01490026  RH  043%=      5-min Rain = 0
KDC1 240535Z 28007KT 15/03 A2996 RMK A01 T01470028  RH  045%=      5-min Rain = 0
KDC1 240536Z 28008KT 15/03 A2996 RMK A01 T01450032  RH  047%=      5-min Rain = 0
KDC1 240537Z 28008KT 14/04 A2996 RMK A01 T01440035  RH  048%=      5-min Rain = 0
KDC1 240538Z 28008KT 14/04 A2996 RMK A01 T01420037  RH  049%=      5-min Rain = 0
KDC1 240539Z 28009KT 14/04 A2996 RMK A01 T01410037  RH  050%=      5-min Rain = 0
KDC1 240540Z 28009KT 14/03 A2996 RMK A01 T01400033  RH  049%=      5-min Rain = 0
KDC1 240541Z 28010KT 14/03 A2996 RMK A01 T01390030  RH  048%=      5-min Rain = 0
KDC1 240542Z 28010KT 14/03 A2996 RMK A01 T01400027  RH  046%=      5-min Rain = 0
KDC1 240543Z 28010KT 14/02 A2996 RMK A01 T01410024  RH  045%=      5-min Rain = 0
KDC1 240544Z 28010KT 14/02 A2996 RMK A01 T01430022  RH  044%=      5-min Rain = 0
KDC1 240545Z 28010KT 14/02 A2996 RMK A01 T01440020  RH  043%=      5-min Rain = 0
KDC1 240546Z 28010KT 15/02 A2996 RMK A01 T01450019  RH  043%=      5-min Rain = 0
KDC1 240547Z 28010KT 15/02 A2996 RMK A01 T01450020  RH  043%=      5-min Rain = 0
KDC1 240548Z 28010KT 15/02 A2996 RMK A01 T01450019  RH  042%=      5-min Rain = 0
KDC1 240549Z 28010KT 15/02 A2996 RMK A01 T01450019  RH  042%=      5-min Rain = 0
KDC1 240550Z 28010KT 15/02 A2996 RMK A01 T01460018  RH  042%=      5-min Rain = 0
KDC1 240551Z 28010KT 15/02 A2996 RMK A01 T01460017  RH  041%=      5-min Rain = 0
KDC1 240552Z 28009KT 15/02 A2996 RMK A01 T01470016  RH  041%=      5-min Rain = 0
KDC1 240553Z 28009KT 15/02 A2996 RMK A01 T01480016  RH  041%=      5-min Rain = 0
KDC1 240554Z 28009KT 15/02 A2996 RMK A01 T01490015  RH  040%=      5-min Rain = 0
KDC1 240555Z 29008KT 15/01 A2996 RMK A01 T01490014  RH  040%=      5-min Rain = 0
KDC1 240556Z 29008KT 15/02 A2996 RMK A01 T01490015  RH  040%=      5-min Rain = 0
KDC1 240557Z 29008KT 15/02 A2996 RMK A01 T01490017  RH  041%=      5-min Rain = 0
KDC1 240558Z 29007KT 15/02 A2996 RMK A01 T01480018  RH  041%=      5-min Rain = 0
KDC1 240559Z 29007KT 15/02 A2996 RMK A01 T01470019  RH  042%=      5-min Rain = 0
KDC1 240600Z 29007KT 15/02 A2996 RMK A01 T01470019  RH  042%=      5-min Rain = 0
KDC1 240606Z 29008KT 14/03 A2996 RMK A01 T01390025  RH  046%=      5-min Rain = 0
KDC1 240607Z 29008KT 14/03 A2996 RMK A01 T01380026  RH  047%=      5-min Rain = 0
KDC1 240608Z 29008KT 14/03 A2996 RMK A01 T01370028  RH  048%=      5-min Rain = 0
KDC1 240609Z 29008KT 14/03 A2996 RMK A01 T01350027  RH  048%=      5-min Rain = 0
KDC1 240610Z 29009KT 13/03 A2996 RMK A01 T01340027  RH  048%=      5-min Rain = 0
KDC1 240611Z 29008KT 13/03 A2996 RMK A01 T01330028  RH  049%=      5-min Rain = 0
KDC1 240612Z 29008KT 13/03 A2996 RMK A01 T01330029  RH  049%=      5-min Rain = 0
KDC1 240613Z 30007KT 13/03 A2996 RMK A01 T01330027  RH  049%=      5-min Rain = 0
KDC1 240614Z 31005KT 13/02 A2996 RMK A01 T01330022  RH  047%=      5-min Rain = 0
KDC1 240615Z 34004KT 13/01 A2996 RMK A01 T01330013  RH  044%=      5-min Rain = 0
KDC1 240616Z 31005KT 13/01 A2996 RMK A01 T01330010  RH  043%=      5-min Rain = 0
KDC1 240617Z 31006KT 13/M00 A2996 RMK A01 T01341004  RH  039%=      5-min Rain = 0
KDC1 240618Z 31006KT 14/M01 A2996 RMK A01 T01361007  RH  037%=      5-min Rain = 0
KDC1 240619Z 32006KT 14/M01 A2996 RMK A01 T01391009  RH  036%=      5-min Rain = 0
KDC1 240620Z 32006KT 14/M00 A2996 RMK A01 T01411002  RH  037%=      5-min Rain = 0
KDC1 240621Z 31006KT 14/00 A2996 RMK A01 T01400000  RH  038%=      5-min Rain = 0
KDC1 240622Z 31007KT 14/00 A2996 RMK A01 T01410001  RH  038%=      5-min Rain = 0
KDC1 240623Z 31007KT 14/00 A2996 RMK A01 T014100-0  RH  038%=      5-min Rain = 0
KDC1 240624Z 31007KT 14/M00 A2996 RMK A01 T01411001  RH  037%=      5-min Rain = 0
KDC1 240625Z 31008KT 14/M00 A2996 RMK A01 T01421002  RH  037%=      5-min Rain = 0
KDC1 240626Z 31008KT 14/M00 A2996 RMK A01 T01421002  RH  037%=      5-min Rain = 0
KDC1 240627Z 31008KT 14/M00 A2996 RMK A01 T01431003  RH  037%=      5-min Rain = 0
KDC1 240628Z 31008KT 14/M00 A2996 RMK A01 T01431004  RH  036%=      5-min Rain = 0
KDC1 240629Z 31008KT 14/M01 A2996 RMK A01 T01441006  RH  036%=      5-min Rain = 0
KDC1 240630Z 32006KT 15/M01 A2996 RMK A01 T01451007  RH  035%=      5-min Rain = 0
KDC1 240631Z 33005KT 15/M01 A2996 RMK A01 T01451009  RH  035%=      5-min Rain = 0
KDC1 240632Z 35004KT 15/M01 A2997 RMK A01 T01461011  RH  034%=      5-min Rain = 0
KDC1 240633Z 02004KT 15/M01 A2997 RMK A01 T01461012  RH  034%=      5-min Rain = 0
KDC1 240634Z 00004KT 15/M01 A2997 RMK A01 T01461010  RH  034%=      5-min Rain = 0
KDC1 240635Z 02004KT 15/M01 A2997 RMK A01 T01461010  RH  034%=      5-min Rain = 0
KDC1 240636Z 01005KT 15/M01 A2997 RMK A01 T01461006  RH  035%=      5-min Rain = 0
KDC1 240637Z 01005KT 15/M00 A2997 RMK A01 T01461003  RH  036%=      5-min Rain = 0
KDC1 240638Z 00005KT 15/M00 A2997 RMK A01 T01461001  RH  037%=      5-min Rain = 0
KDC1 240639Z 35005KT 15/00 A2997 RMK A01 T014500-0  RH  037%=      5-min Rain = 0
KDC1 240640Z 34005KT 14/M00 A2997 RMK A01 T01441003  RH  036%=      5-min Rain = 0
KDC1 240641Z 35005KT 14/M01 A2997 RMK A01 T01441005  RH  036%=      5-min Rain = 0
KDC1 240642Z 34005KT 15/M01 A2997 RMK A01 T01451010  RH  034%=      5-min Rain = 0
KDC1 240643Z 32005KT 15/M01 A2997 RMK A01 T01471013  RH  033%=      5-min Rain = 0
KDC1 240644Z 33006KT 15/M02 A2997 RMK A01 T01501016  RH  032%=      5-min Rain = 0
KDC1 240645Z 32005KT 15/M02 A2997 RMK A01 T01511017  RH  032%=      5-min Rain = 0
KDC1 240646Z 32005KT 15/M02 A2997 RMK A01 T01531016  RH  031%=      5-min Rain = 0
KDC1 240647Z 33005KT 15/M02 A2997 RMK A01 T01531015  RH  031%=      5-min Rain = 0
KDC1 240648Z 33006KT 15/M02 A2997 RMK A01 T01531019  RH  031%=      5-min Rain = 0
KDC1 240649Z 33006KT 15/M01 A2997 RMK A01 T01531014  RH  032%=      5-min Rain = 0
KDC1 240650Z 34007KT 15/M01 A2997 RMK A01 T01511009  RH  033%=      5-min Rain = 0
KDC1 240651Z 33006KT 15/M01 A2997 RMK A01 T01501012  RH  033%=      5-min Rain = 0
KDC1 240652Z 33006KT 15/M01 A2997 RMK A01 T01491014  RH  033%=      5-min Rain = 0
KDC1 240653Z 34005KT 15/M01 A2997 RMK A01 T01491014  RH  033%=      5-min Rain = 0
KDC1 240654Z 34006KT 15/M01 A2997 RMK A01 T01491011  RH  033%=      5-min Rain = 0
KDC1 240655Z 35005KT 15/M01 A2997 RMK A01 T01491012  RH  033%=      5-min Rain = 0
KDC1 240656Z 35005KT 15/M01 A2997 RMK A01 T01491014  RH  033%=      5-min Rain = 0
KDC1 240657Z 35005KT 15/M02 A2997 RMK A01 T01491016  RH  032%=      5-min Rain = 0
KDC1 240658Z 35004KT 15/M01 A2997 RMK A01 T01481011  RH  033%=      5-min Rain = 0
KDC1 240659Z 36004KT 15/M01 A2997 RMK A01 T01471005  RH  035%=      5-min Rain = 0
KDC1 240700Z 00004KT 15/M01 A2997 RMK A01 T01471012  RH  034%=      5-min Rain = 0
KDC1 240701Z 35004KT 15/M02 A2997 RMK A01 T01471020  RH  032%=      5-min Rain = 0
KDC1 240702Z 36004KT 15/M02 A2997 RMK A01 T01481022  RH  031%=      5-min Rain = 0
KDC1 240703Z 00004KT 15/M02 A2997 RMK A01 T01481023  RH  031%=      5-min Rain = 0
KDC1 240704Z 01003KT 15/M02 A2997 RMK A01 T01481024  RH  030%=      5-min Rain = 0
KDC1 240705Z 02002KT 15/M03 A2997 RMK A01 T01491025  RH  030%=      5-min Rain = 0
KDC1 240706Z 03001KT 15/M02 A2997 RMK A01 T01491023  RH  030%=      5-min Rain = 0
KDC1 240707Z 11001KT 15/M00 A2997 RMK A01 T01481002  RH  036%=      5-min Rain = 0
KDC1 240708Z 12001KT 14/01 A2997 RMK A01 T01420006  RH  039%=      5-min Rain = 0
KDC1 240709Z 12002KT 14/01 A2997 RMK A01 T01380010  RH  042%=      5-min Rain = 0
KDC1 240710Z 12000KT 14/01 A2997 RMK A01 T01350007  RH  042%=      5-min Rain = 0
KDC1 240711Z 12000KT 13/01 A2997 RMK A01 T01340006  RH  041%=      5-min Rain = 0
KDC1 240712Z 00000KT 13/01 A2997 RMK A01 T01330005  RH  041%=      5-min Rain = 0
KDC1 240713Z 34002KT 13/M01 A2997 RMK A01 T01331008  RH  038%=      5-min Rain = 0
KDC1 240714Z 33003KT 14/M02 A2997 RMK A01 T01351019  RH  034%=      5-min Rain = 0
KDC1 240715Z 33003KT 14/M02 A2997 RMK A01 T01381024  RH  033%=      5-min Rain = 0
KDC1 240716Z 33004KT 14/M03 A2997 RMK A01 T01411029  RH  031%=      5-min Rain = 0
KDC1 240717Z 33004KT 15/M03 A2997 RMK A01 T01451033  RH  029%=      5-min Rain = 0
KDC1 240718Z 32004KT 15/M03 A2997 RMK A01 T01481033  RH  029%=      5-min Rain = 0
KDC1 240719Z 33005KT 15/M02 A2997 RMK A01 T01481023  RH  031%=      5-min Rain = 0
KDC1 240720Z 33005KT 15/M02 A2997 RMK A01 T01461017  RH  033%=      5-min Rain = 0
KDC1 240721Z 32005KT 14/M01 A2997 RMK A01 T01441013  RH  034%=      5-min Rain = 0
KDC1 240722Z 33005KT 14/M01 A2997 RMK A01 T01411011  RH  035%=      5-min Rain = 0
KDC1 240723Z 33006KT 14/M01 A2997 RMK A01 T01391012  RH  035%=      5-min Rain = 0
KDC1 240724Z 33006KT 14/M01 A2997 RMK A01 T01381010  RH  036%=      5-min Rain = 0
KDC1 240725Z 33007KT 14/M00 A2997 RMK A01 T01361003  RH  038%=      5-min Rain = 0
KDC1 240726Z 33007KT 13/M00 A2997 RMK A01 T01341001  RH  039%=      5-min Rain = 0
KDC1 240727Z 33007KT 13/00 A2997 RMK A01 T01330001  RH  040%=      5-min Rain = 0
KDC1 240728Z 33007KT 13/00 A2997 RMK A01 T01330004  RH  041%=      5-min Rain = 0
KDC1 240729Z 33007KT 13/00 A2997 RMK A01 T01320002  RH  041%=      5-min Rain = 0
KDC1 240730Z 33007KT 13/00 A2997 RMK A01 T013200-0  RH  040%=      5-min Rain = 0
KDC1 240731Z 33007KT 13/M00 A2997 RMK A01 T01321003  RH  040%=      5-min Rain = 0
KDC1 240732Z 32007KT 13/M01 A2997 RMK A01 T01321005  RH  039%=      5-min Rain = 0
KDC1 240733Z 32007KT 13/M01 A2997 RMK A01 T01321006  RH  038%=      5-min Rain = 0
KDC1 240734Z 32007KT 13/M01 A2997 RMK A01 T01321008  RH  038%=      5-min Rain = 0
KDC1 240735Z 32007KT 13/M01 A2997 RMK A01 T01321008  RH  038%=      5-min Rain = 0
KDC1 240736Z 33007KT 13/M01 A2997 RMK A01 T01311007  RH  038%=      5-min Rain = 0
KDC1 240737Z 33006KT 13/M01 A2997 RMK A01 T01301007  RH  039%=      5-min Rain = 0
KDC1 240738Z 32005KT 13/M01 A2997 RMK A01 T01301008  RH  039%=      5-min Rain = 0
KDC1 240739Z 32004KT 13/M01 A2997 RMK A01 T01291007  RH  039%=      5-min Rain = 0
KDC1 240740Z 32003KT 13/M01 A2997 RMK A01 T01291007  RH  039%=      5-min Rain = 0
KDC1 240741Z 33003KT 13/M01 A2997 RMK A01 T01291007  RH  039%=      5-min Rain = 0
KDC1 240742Z 33003KT 13/M01 A2997 RMK A01 T01281008  RH  039%=      5-min Rain = 0
KDC1 240743Z 33002KT 13/M01 A2997 RMK A01 T01281010  RH  038%=      5-min Rain = 0
KDC1 240744Z 33001KT 13/M01 A2997 RMK A01 T01281012  RH  038%=      5-min Rain = 0
KDC1 240745Z 33000KT 13/M01 A2997 RMK A01 T01281013  RH  037%=      5-min Rain = 0
KDC1 240746Z 00000KT 13/M01 A2997 RMK A01 T01291014  RH  037%=      5-min Rain = 0
KDC1 240747Z 03000KT 13/00 A2997 RMK A01 T01280003  RH  042%=      5-min Rain = 0
KDC1 240748Z 32001KT 13/01 A2997 RMK A01 T01250007  RH  044%=      5-min Rain = 0
KDC1 240749Z 04000KT 12/01 A2997 RMK A01 T01230008  RH  045%=      5-min Rain = 0
KDC1 240750Z 22000KT 12/00 A2997 RMK A01 T01210004  RH  044%=      5-min Rain = 0
KDC1 240751Z 24000KT 12/M01 A2997 RMK A01 T01211005  RH  042%=      5-min Rain = 0
KDC1 240752Z 25000KT 12/M01 A2997 RMK A01 T01221007  RH  041%=      5-min Rain = 0
KDC1 240753Z 30000KT 12/M01 A2997 RMK A01 T01241011  RH  039%=      5-min Rain = 0
KDC1 240754Z 30001KT 13/M01 A2997 RMK A01 T01251013  RH  038%=      5-min Rain = 0
KDC1 240755Z 28002KT 13/M01 A2997 RMK A01 T01261010  RH  039%=      5-min Rain = 0
KDC1 240756Z 29002KT 13/M01 A2997 RMK A01 T01271011  RH  038%=      5-min Rain = 0
KDC1 240757Z 28002KT 13/M01 A2997 RMK A01 T01281008  RH  039%=      5-min Rain = 0
KDC1 240758Z 27003KT 13/M01 A2997 RMK A01 T01281010  RH  038%=      5-min Rain = 0
KDC1 240759Z 29004KT 13/M01 A2997 RMK A01 T01291013  RH  037%=      5-min Rain = 0
KDC1 240800Z 30004KT 13/M01 A2997 RMK A01 T01311014  RH  037%=      5-min Rain = 0
KDC1 240801Z 29005KT 13/M01 A2997 RMK A01 T01321013  RH  037%=      5-min Rain = 0
KDC1 240802Z 29005KT 13/M01 A2997 RMK A01 T01321010  RH  037%=      5-min Rain = 0
KDC1 240803Z 29005KT 13/M01 A2997 RMK A01 T01301011  RH  038%=      5-min Rain = 0
KDC1 240804Z 28005KT 13/M01 A2997 RMK A01 T01281011  RH  038%=      5-min Rain = 0
KDC1 240805Z 28005KT 13/M01 A2997 RMK A01 T01281009  RH  039%=      5-min Rain = 0
KDC1 240806Z 28005KT 13/M01 A2997 RMK A01 T01281010  RH  039%=      5-min Rain = 0
KDC1 240807Z 28006KT 13/M01 A2997 RMK A01 T01261010  RH  039%=      5-min Rain = 0
KDC1 240808Z 28005KT 12/M01 A2997 RMK A01 T01231008  RH  040%=      5-min Rain = 0
KDC1 240809Z 28005KT 12/M00 A2997 RMK A01 T01211004  RH  042%=      5-min Rain = 0
KDC1 240810Z 29006KT 12/M01 A2997 RMK A01 T01181005  RH  042%=      5-min Rain = 0
KDC1 240811Z 29006KT 12/M01 A2997 RMK A01 T01171008  RH  042%=      5-min Rain = 0
KDC1 240812Z 29005KT 12/M01 A2997 RMK A01 T01161007  RH  042%=      5-min Rain = 0
KDC1 240813Z 29006KT 12/M01 A2997 RMK A01 T01161005  RH  043%=      5-min Rain = 0
KDC1 240814Z 29006KT 12/M00 A2997 RMK A01 T01151002  RH  044%=      5-min Rain = 0
KDC1 240815Z 29005KT 11/00 A2997 RMK A01 T011400-0  RH  045%=      5-min Rain = 0
KDC1 240816Z 29005KT 11/00 A2997 RMK A01 T01130002  RH  046%=      5-min Rain = 0
KDC1 240817Z 29005KT 11/00 A2997 RMK A01 T01120003  RH  047%=      5-min Rain = 0
KDC1 240818Z 29003KT 11/00 A2997 RMK A01 T01120004  RH  048%=      5-min Rain = 0
KDC1 240819Z 31002KT 11/01 A2997 RMK A01 T01120006  RH  048%=      5-min Rain = 0
KDC1 240820Z 32001KT 11/01 A2997 RMK A01 T01110008  RH  049%=      5-min Rain = 0
KDC1 240821Z 35000KT 11/01 A2997 RMK A01 T01110006  RH  048%=      5-min Rain = 0
KDC1 240822Z 33000KT 11/M00 A2997 RMK A01 T01111001  RH  046%=      5-min Rain = 0
KDC1 240823Z 34001KT 11/M01 A2997 RMK A01 T01111005  RH  045%=      5-min Rain = 0
KDC1 240824Z 33002KT 11/M01 A2997 RMK A01 T01111010  RH  043%=      5-min Rain = 0
KDC1 240825Z 32002KT 11/M02 A2997 RMK A01 T01111016  RH  041%=      5-min Rain = 0
KDC1 240826Z 35002KT 11/M02 A2997 RMK A01 T01121019  RH  040%=      5-min Rain = 0
KDC1 240827Z 31003KT 11/M02 A2997 RMK A01 T01131020  RH  039%=      5-min Rain = 0
KDC1 240828Z 32004KT 12/M03 A2997 RMK A01 T01151027  RH  037%=      5-min Rain = 0
KDC1 240829Z 32004KT 12/M03 A2997 RMK A01 T01181030  RH  035%=      5-min Rain = 0
KDC1 240830Z 30005KT 12/M02 A2997 RMK A01 T01191024  RH  037%=      5-min Rain = 0
KDC1 240831Z 30005KT 12/M03 A2997 RMK A01 T01201029  RH  035%=      5-min Rain = 0
KDC1 240832Z 30005KT 12/M03 A2997 RMK A01 T01211031  RH  035%=      5-min Rain = 0
KDC1 240833Z 30005KT 12/M03 A2997 RMK A01 T01231032  RH  034%=      5-min Rain = 0
KDC1 240834Z 29006KT 12/M03 A2997 RMK A01 T01231027  RH  035%=      5-min Rain = 0
KDC1 240835Z 29006KT 12/M03 A2997 RMK A01 T01231026  RH  035%=      5-min Rain = 0
KDC1 240836Z 29007KT 12/M03 A2997 RMK A01 T01221027  RH  035%=      5-min Rain = 0
KDC1 240837Z 29007KT 12/M02 A2997 RMK A01 T01211024  RH  036%=      5-min Rain = 0
KDC1 240838Z 29007KT 12/M02 A2997 RMK A01 T01201021  RH  037%=      5-min Rain = 0
KDC1 240839Z 29007KT 12/M02 A2997 RMK A01 T01181016  RH  039%=      5-min Rain = 0
KDC1 240840Z 29006KT 12/M01 A2997 RMK A01 T01171011  RH  041%=      5-min Rain = 0
KDC1 240841Z 29007KT 12/M01 A2997 RMK A01 T01161006  RH  043%=      5-min Rain = 0
KDC1 240842Z 30006KT 12/M01 A2997 RMK A01 T01151006  RH  043%=      5-min Rain = 0
KDC1 240843Z 30005KT 12/M01 A2997 RMK A01 T01151006  RH  043%=      5-min Rain = 0
KDC1 240844Z 30005KT 12/M01 A2997 RMK A01 T01151007  RH  043%=      5-min Rain = 0
KDC1 240845Z 30005KT 12/M01 A2997 RMK A01 T01151007  RH  043%=      5-min Rain = 0
KDC1 240846Z 30006KT 12/M01 A2997 RMK A01 T01151008  RH  042%=      5-min Rain = 0
KDC1 240847Z 30006KT 12/M01 A2997 RMK A01 T01151010  RH  042%=      5-min Rain = 0
KDC1 240848Z 30006KT 12/M01 A2997 RMK A01 T01151010  RH  042%=      5-min Rain = 0
KDC1 240849Z 30007KT 12/M01 A2997 RMK A01 T01151010  RH  042%=      5-min Rain = 0
KDC1 240850Z 30007KT 12/M02 A2997 RMK A01 T01151015  RH  040%=      5-min Rain = 0
KDC1 240851Z 31007KT 12/M02 A2997 RMK A01 T01161015  RH  040%=      5-min Rain = 0
KDC1 240852Z 31006KT 12/M02 A2997 RMK A01 T01171015  RH  040%=      5-min Rain = 0
KDC1 240853Z 31005KT 12/M01 A2997 RMK A01 T01171014  RH  040%=      5-min Rain = 0
KDC1 240854Z 31006KT 12/M01 A2997 RMK A01 T01171014  RH  040%=      5-min Rain = 0
KDC1 240855Z 31007KT 12/M02 A2997 RMK A01 T01181015  RH  040%=      5-min Rain = 0
KDC1 240856Z 31007KT 12/M02 A2997 RMK A01 T01191021  RH  038%=      5-min Rain = 0
KDC1 240857Z 31007KT 12/M02 A2997 RMK A01 T01211024  RH  036%=      5-min Rain = 0
KDC1 240858Z 31007KT 12/M02 A2997 RMK A01 T01221024  RH  036%=      5-min Rain = 0
KDC1 240859Z 30007KT 12/M02 A2997 RMK A01 T01221021  RH  037%=      5-min Rain = 0
KDC1 240900Z 30008KT 12/M02 A2997 RMK A01 T01221018  RH  038%=      5-min Rain = 0
KDC1 240901Z 31008KT 12/M02 A2997 RMK A01 T01211018  RH  038%=      5-min Rain = 0
KDC1 240902Z 31008KT 12/M02 A2997 RMK A01 T01211020  RH  038%=      5-min Rain = 0
KDC1 240903Z 31008KT 12/M02 A2997 RMK A01 T01211021  RH  037%=      5-min Rain = 0
KDC1 240904Z 30009KT 12/M03 A2997 RMK A01 T01231025  RH  036%=      5-min Rain = 0
KDC1 240905Z 30009KT 12/M03 A2997 RMK A01 T01241026  RH  035%=      5-min Rain = 0
KDC1 240906Z 30009KT 13/M03 A2997 RMK A01 T01251029  RH  034%=      5-min Rain = 0
KDC1 240907Z 30009KT 13/M03 A2997 RMK A01 T01261029  RH  034%=      5-min Rain = 0
KDC1 240908Z 30009KT 13/M03 A2997 RMK A01 T01261029  RH  034%=      5-min Rain = 0
KDC1 240909Z 30009KT 13/M03 A2997 RMK A01 T01261029  RH  034%=      5-min Rain = 0
KDC1 240910Z 30009KT 13/M03 A2997 RMK A01 T01261030  RH  034%=      5-min Rain = 0
KDC1 240911Z 30009KT 13/M03 A2997 RMK A01 T01261029  RH  034%=      5-min Rain = 0
KDC1 240912Z 29009KT 13/M03 A2997 RMK A01 T01261027  RH  034%=      5-min Rain = 0
KDC1 240913Z 29009KT 13/M02 A2998 RMK A01 T01261022  RH  036%=      5-min Rain = 0
KDC1 240914Z 29010KT 13/M02 A2998 RMK A01 T01261016  RH  037%=      5-min Rain = 0
KDC1 240915Z 29010KT 13/M01 A2998 RMK A01 T01251014  RH  038%=      5-min Rain = 0
KDC1 240916Z 29010KT 13/M01 A2998 RMK A01 T01251014  RH  038%=      5-min Rain = 0
KDC1 240917Z 30009KT 13/M02 A2998 RMK A01 T01251015  RH  038%=      5-min Rain = 0
KDC1 240918Z 30009KT 13/M01 A2998 RMK A01 T01251013  RH  038%=      5-min Rain = 0
KDC1 240919Z 30008KT 13/M01 A2998 RMK A01 T01251013  RH  038%=      5-min Rain = 0
KDC1 240920Z 30007KT 13/M02 A2998 RMK A01 T01251017  RH  037%=      5-min Rain = 0
KDC1 240921Z 30007KT 13/M02 A2998 RMK A01 T01251017  RH  037%=      5-min Rain = 0
KDC1 240922Z 30007KT 13/M02 A2998 RMK A01 T01251018  RH  037%=      5-min Rain = 0
KDC1 240923Z 30007KT 12/M02 A2998 RMK A01 T01241018  RH  037%=      5-min Rain = 0
KDC1 240924Z 30007KT 12/M02 A2998 RMK A01 T01241018  RH  037%=      5-min Rain = 0
KDC1 240925Z 30006KT 12/M02 A2998 RMK A01 T01241022  RH  036%=      5-min Rain = 0
KDC1 240926Z 30007KT 12/M02 A2998 RMK A01 T01241023  RH  036%=      5-min Rain = 0
KDC1 240927Z 30007KT 12/M02 A2998 RMK A01 T01231022  RH  036%=      5-min Rain = 0
KDC1 240928Z 30007KT 12/M02 A2998 RMK A01 T01221020  RH  037%=      5-min Rain = 0
KDC1 240929Z 30007KT 12/M02 A2998 RMK A01 T01221018  RH  038%=      5-min Rain = 0
KDC1 240930Z 30008KT 12/M02 A2998 RMK A01 T01211017  RH  038%=      5-min Rain = 0
KDC1 240931Z 30009KT 12/M02 A2998 RMK A01 T01211021  RH  037%=      5-min Rain = 0
KDC1 240932Z 30008KT 12/M03 A2998 RMK A01 T01211026  RH  036%=      5-min Rain = 0
KDC1 240933Z 30008KT 12/M03 A2998 RMK A01 T01221027  RH  035%=      5-min Rain = 0
KDC1 240934Z 30008KT 12/M03 A2998 RMK A01 T01231030  RH  034%=      5-min Rain = 0
KDC1 240935Z 30008KT 12/M03 A2998 RMK A01 T01241031  RH  034%=      5-min Rain = 0
KDC1 240936Z 30007KT 12/M03 A2998 RMK A01 T01241029  RH  034%=      5-min Rain = 0
KDC1 240937Z 30006KT 12/M03 A2998 RMK A01 T01241027  RH  035%=      5-min Rain = 0
KDC1 240938Z 31005KT 12/M02 A2998 RMK A01 T01231024  RH  036%=      5-min Rain = 0
KDC1 240939Z 31005KT 12/M02 A2998 RMK A01 T01221024  RH  036%=      5-min Rain = 0
KDC1 240940Z 30006KT 12/M03 A2998 RMK A01 T01201025  RH  036%=      5-min Rain = 0
KDC1 240941Z 30006KT 12/M02 A2998 RMK A01 T01201024  RH  037%=      5-min Rain = 0
KDC1 240942Z 30007KT 12/M02 A2998 RMK A01 T01191023  RH  037%=      5-min Rain = 0
KDC1 240943Z 30007KT 12/M02 A2998 RMK A01 T01181021  RH  038%=      5-min Rain = 0
KDC1 240944Z 30007KT 12/M02 A2998 RMK A01 T01171021  RH  038%=      5-min Rain = 0
KDC1 240945Z 30007KT 12/M02 A2998 RMK A01 T01161020  RH  038%=      5-min Rain = 0
KDC1 240946Z 30007KT 12/M02 A2998 RMK A01 T01151019  RH  039%=      5-min Rain = 0
KDC1 240947Z 30007KT 12/M02 A2998 RMK A01 T01151018  RH  039%=      5-min Rain = 0
KDC1 240948Z 30006KT 11/M02 A2998 RMK A01 T01141018  RH  040%=      5-min Rain = 0
KDC1 240949Z 30006KT 11/M02 A2998 RMK A01 T01141017  RH  040%=      5-min Rain = 0
KDC1 240950Z 30006KT 11/M01 A2998 RMK A01 T01131014  RH  041%=      5-min Rain = 0
KDC1 240951Z 30006KT 11/M01 A2998 RMK A01 T01131011  RH  042%=      5-min Rain = 0
KDC1 240952Z 30005KT 11/M01 A2998 RMK A01 T01131008  RH  043%=      5-min Rain = 0
KDC1 240953Z 30005KT 11/M01 A2998 RMK A01 T01131007  RH  043%=      5-min Rain = 0
KDC1 240954Z 30005KT 11/M01 A2998 RMK A01 T01131006  RH  044%=      5-min Rain = 0
KDC1 240955Z 30006KT 11/M00 A2998 RMK A01 T01121003  RH  045%=      5-min Rain = 0
KDC1 240956Z 30006KT 11/M00 A2998 RMK A01 T01111001  RH  046%=      5-min Rain = 0
KDC1 240957Z 31005KT 11/00 A2998 RMK A01 T01100000  RH  047%=      5-min Rain = 0
KDC1 240958Z 31005KT 11/00 A2998 RMK A01 T010900-0  RH  047%=      5-min Rain = 0
KDC1 240959Z 30005KT 11/00 A2998 RMK A01 T01090000  RH  047%=      5-min Rain = 0
KDC1 241000Z 30005KT 11/00 A2998 RMK A01 T01090001  RH  047%=      5-min Rain = 0
KDC1 241001Z 30005KT 11/M00 A2998 RMK A01 T01081001  RH  047%=      5-min Rain = 0
KDC1 241002Z 30005KT 11/M00 A2998 RMK A01 T01081002  RH  046%=      5-min Rain = 0
KDC1 241003Z 30005KT 11/M00 A2998 RMK A01 T01081003  RH  046%=      5-min Rain = 0
KDC1 241004Z 30005KT 11/M00 A2998 RMK A01 T01091003  RH  046%=      5-min Rain = 0
KDC1 241005Z 30005KT 11/M00 A2998 RMK A01 T01091004  RH  046%=      5-min Rain = 0
KDC1 241006Z 30005KT 11/M00 A2998 RMK A01 T01101003  RH  046%=      5-min Rain = 0
KDC1 241007Z 30005KT 11/M00 A2998 RMK A01 T01101001  RH  046%=      5-min Rain = 0
KDC1 241008Z 30005KT 11/M00 A2998 RMK A01 T01111003  RH  045%=      5-min Rain = 0
KDC1 241009Z 30006KT 11/00 A2998 RMK A01 T011100-0  RH  046%=      5-min Rain = 0
KDC1 241010Z 30006KT 11/00 A2998 RMK A01 T01110001  RH  047%=      5-min Rain = 0
KDC1 241011Z 30006KT 11/M00 A2998 RMK A01 T01101001  RH  046%=      5-min Rain = 0
KDC1 241012Z 30006KT 11/M00 A2998 RMK A01 T01101002  RH  046%=      5-min Rain = 0
KDC1 241013Z 30006KT 11/M00 A2998 RMK A01 T01111002  RH  046%=      5-min Rain = 0
KDC1 241014Z 30006KT 11/M00 A2998 RMK A01 T01111002  RH  046%=      5-min Rain = 0
KDC1 241015Z 30006KT 11/M00 A2998 RMK A01 T01111001  RH  046%=      5-min Rain = 0
KDC1 241016Z 30007KT 11/00 A2998 RMK A01 T011100-0  RH  046%=      5-min Rain = 0
KDC1 241017Z 30006KT 11/M00 A2998 RMK A01 T01111002  RH  045%=      5-min Rain = 0
KDC1 241018Z 30007KT 11/M00 A2998 RMK A01 T01111004  RH  045%=      5-min Rain = 0
KDC1 241019Z 30007KT 11/M00 A2998 RMK A01 T01111003  RH  045%=      5-min Rain = 0
KDC1 241020Z 30006KT 11/00 A2998 RMK A01 T011100-0  RH  046%=      5-min Rain = 0
KDC1 241021Z 30006KT 11/00 A2998 RMK A01 T01100002  RH  047%=      5-min Rain = 0
KDC1 241022Z 30006KT 11/00 A2998 RMK A01 T01100003  RH  048%=      5-min Rain = 0
KDC1 241023Z 30006KT 11/00 A2998 RMK A01 T01090004  RH  048%=      5-min Rain = 0
KDC1 241024Z 30006KT 11/00 A2998 RMK A01 T01090003  RH  048%=      5-min Rain = 0
KDC1 241025Z 30006KT 11/M00 A2998 RMK A01 T01081001  RH  047%=      5-min Rain = 0
KDC1 241026Z 30005KT 11/M00 A2998 RMK A01 T01081004  RH  046%=      5-min Rain = 0
KDC1 241027Z 30005KT 11/00 A2998 RMK A01 T01080002  RH  048%=      5-min Rain = 0
KDC1 241028Z 30006KT 11/M00 A2998 RMK A01 T01071001  RH  047%=      5-min Rain = 0
KDC1 241029Z 29007KT 11/M00 A2998 RMK A01 T01071003  RH  046%=      5-min Rain = 0
KDC1 241030Z 29008KT 11/M01 A2998 RMK A01 T01071009  RH  045%=      5-min Rain = 0
KDC1 241031Z 29009KT 11/M01 A2998 RMK A01 T01091013  RH  043%=      5-min Rain = 0
KDC1 241032Z 29009KT 11/M02 A2998 RMK A01 T01111018  RH  041%=      5-min Rain = 0
KDC1 241033Z 29009KT 11/M02 A2998 RMK A01 T01121020  RH  040%=      5-min Rain = 0
KDC1 241034Z 29010KT 11/M02 A2998 RMK A01 T01131021  RH  039%=      5-min Rain = 0
KDC1 241035Z 29011KT 11/M03 A2998 RMK A01 T01141025  RH  038%=      5-min Rain = 0
KDC1 241036Z 29010KT 12/M02 A2998 RMK A01 T01151023  RH  038%=      5-min Rain = 0
KDC1 241037Z 29010KT 11/M02 A2998 RMK A01 T01141021  RH  039%=      5-min Rain = 0
KDC1 241038Z 29010KT 11/M02 A2998 RMK A01 T01141019  RH  039%=      5-min Rain = 0
KDC1 241039Z 29010KT 11/M02 A2998 RMK A01 T01131020  RH  039%=      5-min Rain = 0
KDC1 241040Z 29010KT 11/M02 A2999 RMK A01 T01131020  RH  039%=      5-min Rain = 0
KDC1 241041Z 29010KT 11/M02 A2999 RMK A01 T01131019  RH  040%=      5-min Rain = 0
KDC1 241042Z 29010KT 11/M02 A2999 RMK A01 T01121019  RH  040%=      5-min Rain = 0
KDC1 241043Z 29010KT 11/M02 A2999 RMK A01 T01121020  RH  040%=      5-min Rain = 0
KDC1 241044Z 29010KT 11/M02 A2999 RMK A01 T01121022  RH  039%=      5-min Rain = 0
KDC1 241045Z 29010KT 11/M02 A2999 RMK A01 T01131021  RH  039%=      5-min Rain = 0
KDC1 241046Z 29009KT 11/M02 A2999 RMK A01 T01131020  RH  040%=      5-min Rain = 0
KDC1 241047Z 29009KT 11/M02 A2999 RMK A01 T01121021  RH  039%=      5-min Rain = 0
KDC1 241048Z 29009KT 11/M02 A2999 RMK A01 T01121019  RH  040%=      5-min Rain = 0
KDC1 241049Z 29009KT 11/M02 A2999 RMK A01 T01121020  RH  040%=      5-min Rain = 0
KDC1 241050Z 29009KT 11/M02 A2999 RMK A01 T01121022  RH  039%=      5-min Rain = 0
KDC1 241051Z 29009KT 11/M02 A2999 RMK A01 T01121019  RH  040%=      5-min Rain = 0
KDC1 241052Z 29009KT 11/M02 A2999 RMK A01 T01111018  RH  041%=      5-min Rain = 0
KDC1 241053Z 30008KT 11/M02 A2999 RMK A01 T01111019  RH  040%=      5-min Rain = 0
KDC1 241054Z 30008KT 11/M02 A2999 RMK A01 T01121019  RH  040%=      5-min Rain = 0
KDC1 241055Z 30009KT 11/M02 A2999 RMK A01 T01121017  RH  040%=      5-min Rain = 0
KDC1 241056Z 30008KT 11/M02 A2999 RMK A01 T01121017  RH  041%=      5-min Rain = 0
KDC1 241057Z 30007KT 11/M02 A2999 RMK A01 T01121017  RH  040%=      5-min Rain = 0
KDC1 241058Z 30007KT 11/M02 A2999 RMK A01 T01131019  RH  040%=      5-min Rain = 0
KDC1 241059Z 33004KT 11/M02 A2999 RMK A01 T01131018  RH  040%=      5-min Rain = 0
KDC1 241100Z 04003KT 11/M02 A2999 RMK A01 T01131022  RH  039%=      5-min Rain = 0
KDC1 241101Z 05005KT 11/M01 A2999 RMK A01 T01121014  RH  042%=      5-min Rain = 0
KDC1 241102Z 04005KT 11/M01 A2999 RMK A01 T01081009  RH  044%=      5-min Rain = 0
KDC1 241103Z 00005KT 11/M01 A2999 RMK A01 T01061014  RH  043%=      5-min Rain = 0
KDC1 241104Z 32007KT 11/M03 A2999 RMK A01 T01071026  RH  039%=      5-min Rain = 0
KDC1 241105Z 31008KT 12/M04 A2999 RMK A01 T01151036  RH  034%=      5-min Rain = 0
KDC1 241106Z 31008KT 12/M03 A2999 RMK A01 T01211033  RH  034%=      5-min Rain = 0
KDC1 241107Z 32007KT 12/M03 A2999 RMK A01 T01211031  RH  035%=      5-min Rain = 0
KDC1 241108Z 33007KT 12/M03 A2999 RMK A01 T01211029  RH  035%=      5-min Rain = 0
KDC1 241109Z 35005KT 12/M03 A2999 RMK A01 T01201029  RH  035%=      5-min Rain = 0
KDC1 241110Z 36005KT 12/M03 A2999 RMK A01 T01181028  RH  036%=      5-min Rain = 0
KDC1 241111Z 35005KT 12/M03 A30 RMK A01 T01171027  RH  036%=      5-min Rain = 0
KDC1 241112Z 34006KT 12/M03 A30 RMK A01 T01151029  RH  036%=      5-min Rain = 0
KDC1 241113Z 33007KT 12/M03 A2999 RMK A01 T01151031  RH  036%=      5-min Rain = 0
KDC1 241114Z 33007KT 12/M03 A2999 RMK A01 T01151032  RH  036%=      5-min Rain = 0
KDC1 241115Z 33008KT 12/M03 A2999 RMK A01 T01161034  RH  035%=      5-min Rain = 0
KDC1 241116Z 33008KT 12/M03 A2999 RMK A01 T01181034  RH  034%=      5-min Rain = 0
KDC1 241117Z 34007KT 12/M03 A30 RMK A01 T01191033  RH  034%=      5-min Rain = 0
KDC1 241118Z 01004KT 12/M03 A30 RMK A01 T01191032  RH  035%=      5-min Rain = 0
KDC1 241119Z 06004KT 12/M03 A30 RMK A01 T01191028  RH  036%=      5-min Rain = 0
KDC1 241120Z 08004KT 12/M03 A30 RMK A01 T01181030  RH  036%=      5-min Rain = 0
KDC1 241121Z 07003KT 12/M03 A30 RMK A01 T01181032  RH  035%=      5-min Rain = 0
KDC1 241122Z 09001KT 12/M03 A30 RMK A01 T01181032  RH  035%=      5-min Rain = 0
KDC1 241123Z 06001KT 12/M04 A30 RMK A01 T01181036  RH  034%=      5-min Rain = 0
KDC1 241124Z 03002KT 12/M04 A30 RMK A01 T01191040  RH  033%=      5-min Rain = 0
KDC1 241125Z 02002KT 12/M04 A30 RMK A01 T01191042  RH  032%=      5-min Rain = 0
KDC1 241126Z 02002KT 12/M04 A30 RMK A01 T01201043  RH  032%=      5-min Rain = 0
KDC1 241127Z 04003KT 12/M04 A30 RMK A01 T01201042  RH  032%=      5-min Rain = 0
KDC1 241128Z 04003KT 12/M05 A30 RMK A01 T01201046  RH  031%=      5-min Rain = 0
KDC1 241129Z 06003KT 12/M05 A30 RMK A01 T01221050  RH  030%=      5-min Rain = 0
KDC1 241130Z 06002KT 12/M05 A30 RMK A01 T01231049  RH  030%=      5-min Rain = 0
KDC1 241131Z 07001KT 12/M05 A30 RMK A01 T01241048  RH  030%=      5-min Rain = 0
KDC1 241132Z 06001KT 12/M05 A30 RMK A01 T01241047  RH  030%=      5-min Rain = 0
KDC1 241133Z 05001KT 12/M05 A30 RMK A01 T01241046  RH  030%=      5-min Rain = 0
KDC1 241134Z 05001KT 12/M05 A30 RMK A01 T01231047  RH  030%=      5-min Rain = 0
KDC1 241135Z 05001KT 12/M05 A30 RMK A01 T01231048  RH  030%=      5-min Rain = 0
KDC1 241136Z 04001KT 12/M05 A30 RMK A01 T01221047  RH  030%=      5-min Rain = 0
KDC1 241137Z 03001KT 12/M05 A30 RMK A01 T01211046  RH  031%=      5-min Rain = 0
KDC1 241138Z 02001KT 12/M05 A30 RMK A01 T01211047  RH  031%=      5-min Rain = 0
KDC1 241139Z 03001KT 12/M05 A30 RMK A01 T01201050  RH  030%=      5-min Rain = 0
KDC1 241140Z 03001KT 12/M05 A30 RMK A01 T01201050  RH  030%=      5-min Rain = 0
KDC1 241141Z 03001KT 12/M05 A30 RMK A01 T01191050  RH  030%=      5-min Rain = 0
KDC1 241142Z 03001KT 12/M05 A30 RMK A01 T01191050  RH  030%=      5-min Rain = 0
KDC1 241143Z 03001KT 12/M05 A30 RMK A01 T01181051  RH  030%=      5-min Rain = 0
KDC1 241144Z 03001KT 12/M05 A30 RMK A01 T01181050  RH  030%=      5-min Rain = 0
KDC1 241145Z 02002KT 12/M05 A30 RMK A01 T01181051  RH  030%=      5-min Rain = 0
KDC1 241146Z 02002KT 12/M05 A30 RMK A01 T01181050  RH  031%=      5-min Rain = 0
KDC1 241147Z 02002KT 12/M05 A30 RMK A01 T01181049  RH  031%=      5-min Rain = 0
KDC1 241148Z 01002KT 12/M05 A30 RMK A01 T01181049  RH  031%=      5-min Rain = 0
KDC1 241149Z 01002KT 12/M05 A30 RMK A01 T01191049  RH  030%=      5-min Rain = 0
KDC1 241150Z 01002KT 12/M05 A30 RMK A01 T01191049  RH  030%=      5-min Rain = 0
KDC1 241151Z 01002KT 12/M05 A30 RMK A01 T01201050  RH  030%=      5-min Rain = 0
KDC1 241152Z 02002KT 12/M05 A30 RMK A01 T01201049  RH  030%=      5-min Rain = 0
KDC1 241153Z 04002KT 12/M05 A30 RMK A01 T01211048  RH  030%=      5-min Rain = 0
KDC1 241154Z 02002KT 12/M05 A30 RMK A01 T01211047  RH  031%=      5-min Rain = 0
KDC1 241155Z 03001KT 12/M05 A30 RMK A01 T01211046  RH  031%=      5-min Rain = 0
KDC1 241156Z 04001KT 12/M05 A30 RMK A01 T01211046  RH  031%=      5-min Rain = 0
KDC1 241157Z 04001KT 12/M05 A30 RMK A01 T01201046  RH  031%=      5-min Rain = 0
KDC1 241158Z 04001KT 12/M04 A30 RMK A01 T01201044  RH  031%=      5-min Rain = 0
KDC1 241159Z 04002KT 12/M04 A30 RMK A01 T01191044  RH  032%=      5-min Rain = 0
KDC1 241200Z 04002KT 12/M04 A30 RMK A01 T01181042  RH  032%=      5-min Rain = 0
KDC1 241201Z 04002KT 12/M04 A30 RMK A01 T01181041  RH  033%=      5-min Rain = 0
KDC1 241202Z 04003KT 12/M04 A30 RMK A01 T01171041  RH  033%=      5-min Rain = 0
KDC1 241203Z 04001KT 12/M04 A30 RMK A01 T01171041  RH  033%=      5-min Rain = 0
KDC1 241204Z 04001KT 12/M04 A30 RMK A01 T01171040  RH  033%=      5-min Rain = 0
KDC1 241205Z 05001KT 12/M04 A30 RMK A01 T01161040  RH  033%=      5-min Rain = 0
KDC1 241206Z 05001KT 12/M04 A30 RMK A01 T01161039  RH  033%=      5-min Rain = 0
KDC1 241207Z 05000KT 12/M04 A30 RMK A01 T01161039  RH  034%=      5-min Rain = 0
KDC1 241208Z 04000KT 12/M04 A30 RMK A01 T01161038  RH  034%=      5-min Rain = 0
KDC1 241209Z 00000KT 12/M04 A3001 RMK A01 T01151039  RH  034%=      5-min Rain = 0
KDC1 241210Z 00000KT 12/M04 A3001 RMK A01 T01161036  RH  034%=      5-min Rain = 0
KDC1 241211Z 04000KT 12/M04 A3001 RMK A01 T01151036  RH  035%=      5-min Rain = 0
KDC1 241212Z 02001KT 12/M04 A3001 RMK A01 T01151037  RH  034%=      5-min Rain = 0
KDC1 241213Z 01002KT 12/M04 A3001 RMK A01 T01151038  RH  034%=      5-min Rain = 0
KDC1 241214Z 01002KT 12/M04 A3001 RMK A01 T01161039  RH  034%=      5-min Rain = 0
KDC1 241215Z 01002KT 12/M04 A3001 RMK A01 T01161039  RH  034%=      5-min Rain = 0
KDC1 241216Z 01001KT 12/M04 A3001 RMK A01 T01171039  RH  033%=      5-min Rain = 0
KDC1 241217Z 01001KT 12/M04 A3001 RMK A01 T01171039  RH  033%=      5-min Rain = 0
KDC1 241218Z 02000KT 12/M04 A3001 RMK A01 T01171038  RH  034%=      5-min Rain = 0
KDC1 241219Z 09001KT 12/M03 A3001 RMK A01 T01161025  RH  037%=      5-min Rain = 0
KDC1 241220Z 08001KT 12/M02 A3001 RMK A01 T01151020  RH  039%=      5-min Rain = 0
KDC1 241221Z 09000KT 11/M02 A3001 RMK A01 T01141017  RH  040%=      5-min Rain = 0
KDC1 241222Z 00000KT 11/M03 A3001 RMK A01 T01121028  RH  037%=      5-min Rain = 0
KDC1 241223Z 00000KT 11/M03 A3001 RMK A01 T01121029  RH  037%=      5-min Rain = 0
KDC1 241224Z 02000KT 11/M03 A3001 RMK A01 T01121031  RH  036%=      5-min Rain = 0
KDC1 241225Z 03001KT 11/M03 A3001 RMK A01 T01131031  RH  036%=      5-min Rain = 0
KDC1 241226Z 02001KT 11/M03 A3001 RMK A01 T01141027  RH  037%=      5-min Rain = 0
KDC1 241227Z 02001KT 11/M03 A3001 RMK A01 T01141029  RH  037%=      5-min Rain = 0
KDC1 241228Z 02000KT 11/M03 A3001 RMK A01 T01141031  RH  036%=      5-min Rain = 0
KDC1 241229Z 00000KT 12/M03 A3001 RMK A01 T01151031  RH  036%=      5-min Rain = 0
KDC1 241230Z 00000KT 12/M03 A3001 RMK A01 T01151030  RH  036%=      5-min Rain = 0
KDC1 241231Z 00000KT 12/M03 A3001 RMK A01 T01151029  RH  036%=      5-min Rain = 0
KDC1 241232Z 00000KT 12/M03 A3001 RMK A01 T01151028  RH  037%=      5-min Rain = 0
KDC1 241233Z 00000KT 12/M03 A3002 RMK A01 T01161025  RH  037%=      5-min Rain = 0
KDC1 241234Z 00000KT 12/M03 A3002 RMK A01 T01161026  RH  037%=      5-min Rain = 0
KDC1 241235Z 00000KT 12/M03 A3002 RMK A01 T01161028  RH  037%=      5-min Rain = 0
KDC1 241236Z 00000KT 12/M03 A3002 RMK A01 T01161028  RH  036%=      5-min Rain = 0
KDC1 241237Z 32000KT 12/M03 A3002 RMK A01 T01161028  RH  036%=      5-min Rain = 0
KDC1 241238Z 31001KT 12/M02 A3002 RMK A01 T01171022  RH  038%=      5-min Rain = 0
KDC1 241239Z 31001KT 12/M01 A3002 RMK A01 T01171009  RH  042%=      5-min Rain = 0
KDC1 241240Z 32002KT 12/M01 A3002 RMK A01 T01161007  RH  043%=      5-min Rain = 0
KDC1 241241Z 32003KT 12/M01 A3002 RMK A01 T01151006  RH  043%=      5-min Rain = 0
KDC1 241242Z 32003KT 12/M01 A3002 RMK A01 T01151008  RH  043%=      5-min Rain = 0
KDC1 241243Z 33003KT 12/M01 A3002 RMK A01 T01151008  RH  042%=      5-min Rain = 0
KDC1 241244Z 33004KT 12/M01 A3002 RMK A01 T01161005  RH  043%=      5-min Rain = 0
KDC1 241245Z 33004KT 12/M00 A3002 RMK A01 T01171001  RH  044%=      5-min Rain = 0
KDC1 241246Z 34004KT 12/00 A3002 RMK A01 T01180002  RH  045%=      5-min Rain = 0
KDC1 241247Z 32004KT 12/01 A3002 RMK A01 T01190005  RH  046%=      5-min Rain = 0
KDC1 241248Z 32004KT 12/01 A3002 RMK A01 T01190008  RH  046%=      5-min Rain = 0
KDC1 241249Z 32004KT 12/01 A3002 RMK A01 T01200014  RH  048%=      5-min Rain = 0
KDC1 241250Z 32004KT 12/02 A3002 RMK A01 T01200015  RH  049%=      5-min Rain = 0
KDC1 241251Z 33005KT 12/02 A3002 RMK A01 T01200015  RH  049%=      5-min Rain = 0
KDC1 241252Z 32004KT 12/01 A3002 RMK A01 T01210009  RH  046%=      5-min Rain = 0
KDC1 241253Z 32005KT 12/01 A3002 RMK A01 T01220011  RH  047%=      5-min Rain = 0
KDC1 241254Z 32004KT 12/00 A3002 RMK A01 T01220004  RH  044%=      5-min Rain = 0
KDC1 241255Z 32004KT 12/01 A3002 RMK A01 T01240011  RH  046%=      5-min Rain = 0
KDC1 241256Z 32005KT 12/01 A3002 RMK A01 T01240013  RH  047%=      5-min Rain = 0
KDC1 241257Z 32004KT 13/01 A3002 RMK A01 T01250008  RH  045%=      5-min Rain = 0
KDC1 241258Z 31004KT 13/01 A3002 RMK A01 T01260006  RH  044%=      5-min Rain = 0
KDC1 241259Z 31004KT 13/00 A3002 RMK A01 T01270003  RH  042%=      5-min Rain = 0
KDC1 241300Z 31005KT 13/00 A3002 RMK A01 T01280000  RH  041%=      5-min Rain = 0
KDC1 241301Z 31005KT 13/00 A3002 RMK A01 T012900-0  RH  041%=      5-min Rain = 0
KDC1 241302Z 32005KT 13/M01 A3002 RMK A01 T01301005  RH  039%=      5-min Rain = 0
KDC1 241303Z 32006KT 13/M01 A3002 RMK A01 T01321005  RH  039%=      5-min Rain = 0
KDC1 241304Z 32005KT 13/M00 A3002 RMK A01 T01331003  RH  039%=      5-min Rain = 0
KDC1 241305Z 32005KT 13/00 A3002 RMK A01 T01340002  RH  040%=      5-min Rain = 0
KDC1 241306Z 32005KT 14/01 A3002 RMK A01 T01350008  RH  042%=      5-min Rain = 0
KDC1 241307Z 32004KT 14/01 A3002 RMK A01 T01350011  RH  043%=      5-min Rain = 0
KDC1 241308Z 32004KT 14/01 A3002 RMK A01 T01350014  RH  044%=      5-min Rain = 0
KDC1 241309Z 33004KT 14/01 A3002 RMK A01 T01360006  RH  041%=      5-min Rain = 0
KDC1 241310Z 33003KT 14/M00 A3002 RMK A01 T01371002  RH  038%=      5-min Rain = 0
KDC1 241311Z 33003KT 14/M00 A3002 RMK A01 T01391004  RH  037%=      5-min Rain = 0
KDC1 241312Z 33003KT 14/M00 A3002 RMK A01 T01401004  RH  037%=      5-min Rain = 0
KDC1 241313Z 33003KT 14/M01 A3002 RMK A01 T01421009  RH  035%=      5-min Rain = 0
KDC1 241314Z 33003KT 14/M01 A3002 RMK A01 T01431013  RH  034%=      5-min Rain = 0
KDC1 241315Z 33004KT 14/M02 A3002 RMK A01 T01441019  RH  032%=      5-min Rain = 0
KDC1 241316Z 33003KT 15/M02 A3002 RMK A01 T01451015  RH  033%=      5-min Rain = 0
KDC1 241317Z 33004KT 15/M02 A3002 RMK A01 T01461016  RH  033%=      5-min Rain = 0
KDC1 241318Z 33005KT 15/M02 A3002 RMK A01 T01461015  RH  033%=      5-min Rain = 0
KDC1 241319Z 32005KT 15/M02 A3002 RMK A01 T01461017  RH  033%=      5-min Rain = 0
KDC1 241320Z 32005KT 15/M02 A3003 RMK A01 T01461016  RH  033%=      5-min Rain = 0
KDC1 241321Z 33005KT 15/M02 A3003 RMK A01 T01461023  RH  031%=      5-min Rain = 0
KDC1 241322Z 33005KT 15/M02 A3003 RMK A01 T01461021  RH  032%=      5-min Rain = 0
KDC1 241323Z 33005KT 15/M02 A3003 RMK A01 T01471021  RH  031%=      5-min Rain = 0
KDC1 241324Z 33005KT 15/M02 A3003 RMK A01 T01471022  RH  031%=      5-min Rain = 0
KDC1 241325Z 32005KT 15/M02 A3003 RMK A01 T01481016  RH  032%=      5-min Rain = 0
KDC1 241326Z 32005KT 15/M02 A3003 RMK A01 T01481016  RH  032%=      5-min Rain = 0
KDC1 241327Z 32004KT 15/M02 A3003 RMK A01 T01491019  RH  032%=      5-min Rain = 0
KDC1 241328Z 33004KT 15/M02 A3003 RMK A01 T01491020  RH  031%=      5-min Rain = 0
KDC1 241329Z 32004KT 15/M02 A3003 RMK A01 T01501019  RH  031%=      5-min Rain = 0
KDC1 241330Z 31003KT 15/M01 A3003 RMK A01 T01511013  RH  032%=      5-min Rain = 0
KDC1 241331Z 29002KT 15/M01 A3003 RMK A01 T01521007  RH  034%=      5-min Rain = 0
KDC1 241332Z 28003KT 15/M01 A3003 RMK A01 T01521007  RH  034%=      5-min Rain = 0
KDC1 241333Z 28003KT 15/M01 A3003 RMK A01 T01521013  RH  032%=      5-min Rain = 0
KDC1 241334Z 29003KT 15/M02 A3003 RMK A01 T01521015  RH  032%=      5-min Rain = 0
KDC1 241335Z 29004KT 15/M01 A3003 RMK A01 T01531014  RH  032%=      5-min Rain = 0
KDC1 241336Z 30004KT 15/M01 A3003 RMK A01 T01531011  RH  032%=      5-min Rain = 0
KDC1 241337Z 30004KT 15/M01 A3003 RMK A01 T01541009  RH  033%=      5-min Rain = 0
KDC1 241338Z 30004KT 16/M01 A3003 RMK A01 T01551006  RH  033%=      5-min Rain = 0
KDC1 241339Z 30003KT 16/00 A3003 RMK A01 T01550001  RH  035%=      5-min Rain = 0
KDC1 241340Z 32003KT 16/00 A3003 RMK A01 T015600-0  RH  034%=      5-min Rain = 0
KDC1 241341Z 33003KT 16/M02 A3003 RMK A01 T01581021  RH  029%=      5-min Rain = 0
KDC1 241342Z 34002KT 16/M03 A3003 RMK A01 T01591025  RH  028%=      5-min Rain = 0
KDC1 241343Z 02002KT 16/M03 A3003 RMK A01 T01611025  RH  028%=      5-min Rain = 0
KDC1 241344Z 03002KT 16/M03 A3003 RMK A01 T01631031  RH  026%=      5-min Rain = 0
KDC1 241345Z 05001KT 17/M03 A3003 RMK A01 T01651029  RH  026%=      5-min Rain = 0
KDC1 241346Z 32000KT 17/M03 A3003 RMK A01 T01681027  RH  026%=      5-min Rain = 0
KDC1 241347Z 32001KT 17/M03 A3003 RMK A01 T01691033  RH  025%=      5-min Rain = 0
KDC1 241348Z 32003KT 17/M04 A3003 RMK A01 T01701035  RH  024%=      5-min Rain = 0
KDC1 241349Z 32002KT 17/M03 A3003 RMK A01 T01701034  RH  025%=      5-min Rain = 0
KDC1 241350Z 30003KT 17/M03 A3003 RMK A01 T01691028  RH  026%=      5-min Rain = 0
KDC1 241351Z 29003KT 17/M01 A3003 RMK A01 T01681014  RH  029%=      5-min Rain = 0
KDC1 241352Z 28002KT 17/M00 A3003 RMK A01 T01681001  RH  032%=      5-min Rain = 0
KDC1 241353Z 29002KT 17/M00 A3003 RMK A01 T01681004  RH  031%=      5-min Rain = 0
KDC1 241354Z 29002KT 17/00 A3003 RMK A01 T01680000  RH  032%=      5-min Rain = 0
KDC1 241355Z 29003KT 17/00 A3003 RMK A01 T01680003  RH  033%=      5-min Rain = 0
KDC1 241356Z 29003KT 17/00 A3003 RMK A01 T01680002  RH  032%=      5-min Rain = 0
KDC1 241357Z 29003KT 17/00 A3003 RMK A01 T01680001  RH  032%=      5-min Rain = 0
KDC1 241358Z 29003KT 17/00 A3003 RMK A01 T016900-0  RH  032%=      5-min Rain = 0
KDC1 241359Z 29002KT 17/00 A3003 RMK A01 T01700002  RH  032%=      5-min Rain = 0
KDC1 241400Z 29003KT 17/M00 A3003 RMK A01 T01711002  RH  031%=      5-min Rain = 0
KDC1 241401Z 30003KT 17/M00 A3003 RMK A01 T01711004  RH  030%=      5-min Rain = 0
KDC1 241402Z 31003KT 17/M01 A3003 RMK A01 T01721005  RH  030%=      5-min Rain = 0
KDC1 241403Z 30002KT 17/M01 A3003 RMK A01 T01731009  RH  029%=      5-min Rain = 0
KDC1 241404Z 30002KT 17/M01 A3003 RMK A01 T01741008  RH  029%=      5-min Rain = 0
KDC1 241405Z 32002KT 18/M01 A3003 RMK A01 T01751007  RH  029%=      5-min Rain = 0
KDC1 241406Z 32001KT 18/M01 A3003 RMK A01 T01761010  RH  028%=      5-min Rain = 0
KDC1 241407Z 32002KT 18/M01 A3003 RMK A01 T01781007  RH  029%=      5-min Rain = 0
KDC1 241408Z 32002KT 18/M01 A3003 RMK A01 T01791011  RH  028%=      5-min Rain = 0
KDC1 241409Z 34002KT 18/M01 A3003 RMK A01 T01801010  RH  028%=      5-min Rain = 0
KDC1 241410Z 33002KT 18/M01 A3003 RMK A01 T01811009  RH  028%=      5-min Rain = 0
KDC1 241411Z 33003KT 18/M01 A3003 RMK A01 T01811007  RH  028%=      5-min Rain = 0
KDC1 241412Z 31003KT 18/M01 A3003 RMK A01 T01811005  RH  028%=      5-min Rain = 0
KDC1 241413Z 31002KT 18/M00 A3003 RMK A01 T01821002  RH  029%=      5-min Rain = 0
KDC1 241414Z 32002KT 18/M00 A3003 RMK A01 T01831001  RH  029%=      5-min Rain = 0
KDC1 241415Z 32002KT 18/00 A3003 RMK A01 T01830000  RH  029%=      5-min Rain = 0
KDC1 241416Z 31002KT 18/00 A3003 RMK A01 T01840004  RH  030%=      5-min Rain = 0
KDC1 241417Z 31001KT 19/01 A3003 RMK A01 T01850006  RH  030%=      5-min Rain = 0
KDC1 241418Z 31002KT 19/01 A3003 RMK A01 T01860008  RH  030%=      5-min Rain = 0
KDC1 241419Z 32002KT 19/01 A3003 RMK A01 T01870009  RH  030%=      5-min Rain = 0
KDC1 241420Z 34002KT 19/01 A3003 RMK A01 T01880012  RH  031%=      5-min Rain = 0
KDC1 241421Z 34002KT 19/01 A3003 RMK A01 T01900014  RH  031%=      5-min Rain = 0
KDC1 241422Z 34002KT 19/02 A3003 RMK A01 T01900016  RH  031%=      5-min Rain = 0
KDC1 241423Z 33001KT 19/02 A3003 RMK A01 T01910020  RH  032%=      5-min Rain = 0
KDC1 241424Z 31000KT 19/02 A3003 RMK A01 T01920020  RH  032%=      5-min Rain = 0
KDC1 241425Z 30002KT 19/01 A3003 RMK A01 T01940008  RH  029%=      5-min Rain = 0
KDC1 241426Z 30003KT 20/01 A3003 RMK A01 T01950005  RH  028%=      5-min Rain = 0
KDC1 241427Z 32003KT 20/01 A3003 RMK A01 T01960005  RH  028%=      5-min Rain = 0
KDC1 241428Z 31003KT 20/M00 A3003 RMK A01 T01971001  RH  026%=      5-min Rain = 0
KDC1 241429Z 31004KT 20/M00 A3003 RMK A01 T01971003  RH  026%=      5-min Rain = 0
KDC1 241430Z 27004KT 20/01 A3003 RMK A01 T01980008  RH  028%=      5-min Rain = 0
KDC1 241431Z 25004KT 20/03 A3003 RMK A01 T01990030  RH  033%=      5-min Rain = 0
KDC1 241432Z 24003KT 20/03 A3003 RMK A01 T01970028  RH  033%=      5-min Rain = 0
KDC1 241433Z 25002KT 20/03 A3003 RMK A01 T01950027  RH  033%=      5-min Rain = 0
KDC1 241434Z 25002KT 19/02 A3003 RMK A01 T01940023  RH  032%=      5-min Rain = 0
KDC1 241435Z 25001KT 19/02 A3003 RMK A01 T01930022  RH  032%=      5-min Rain = 0
KDC1 241436Z 21001KT 19/02 A3003 RMK A01 T01940023  RH  032%=      5-min Rain = 0
KDC1 241437Z 25001KT 20/02 A3003 RMK A01 T01950021  RH  031%=      5-min Rain = 0
KDC1 241438Z 22000KT 20/02 A3003 RMK A01 T01960019  RH  031%=      5-min Rain = 0
KDC1 241439Z 00000KT 20/02 A3003 RMK A01 T01980020  RH  031%=      5-min Rain = 0
KDC1 241440Z 14001KT 20/02 A3003 RMK A01 T02000023  RH  031%=      5-min Rain = 0
KDC1 241441Z 14001KT 20/02 A3003 RMK A01 T02020024  RH  031%=      5-min Rain = 0
KDC1 241442Z 15001KT 20/02 A3003 RMK A01 T02040022  RH  030%=      5-min Rain = 0
KDC1 241443Z 15001KT 21/02 A3003 RMK A01 T02050020  RH  029%=      5-min Rain = 0
KDC1 241444Z 15001KT 21/02 A3003 RMK A01 T02060021  RH  029%=      5-min Rain = 0
KDC1 241445Z 15001KT 21/02 A3003 RMK A01 T02080017  RH  028%=      5-min Rain = 0
KDC1 241446Z 19000KT 21/02 A3003 RMK A01 T02100019  RH  028%=      5-min Rain = 0
KDC1 241447Z 00000KT 21/02 A3003 RMK A01 T02110020  RH  028%=      5-min Rain = 0
KDC1 241448Z 00000KT 21/02 A3003 RMK A01 T02130021  RH  028%=      5-min Rain = 0
KDC1 241449Z 12000KT 22/02 A3003 RMK A01 T02150022  RH  028%=      5-min Rain = 0
KDC1 241450Z 08001KT 22/02 A3003 RMK A01 T02180020  RH  027%=      5-min Rain = 0
KDC1 241451Z 09002KT 22/01 A3004 RMK A01 T02180011  RH  025%=      5-min Rain = 0
KDC1 241452Z 10003KT 22/02 A3004 RMK A01 T02170017  RH  027%=      5-min Rain = 0
KDC1 241453Z 11004KT 21/03 A3004 RMK A01 T02140027  RH  029%=      5-min Rain = 0
KDC1 241454Z 11005KT 21/04 A3004 RMK A01 T02110036  RH  032%=      5-min Rain = 0
KDC1 241455Z 12005KT 21/03 A3004 RMK A01 T02080032  RH  031%=      5-min Rain = 0
KDC1 241456Z 12004KT 21/04 A3004 RMK A01 T02080036  RH  032%=      5-min Rain = 0
KDC1 241457Z 13003KT 21/04 A3004 RMK A01 T02070040  RH  033%=      5-min Rain = 0
KDC1 241458Z 14002KT 21/03 A3004 RMK A01 T02060034  RH  032%=      5-min Rain = 0
KDC1 241459Z 16002KT 21/03 A3004 RMK A01 T02060034  RH  032%=      5-min Rain = 0
KDC1 241500Z 16002KT 21/03 A3004 RMK A01 T02070025  RH  030%=      5-min Rain = 0
KDC1 241501Z 14001KT 21/02 A3004 RMK A01 T02090020  RH  029%=      5-min Rain = 0
KDC1 241502Z 12002KT 21/02 A3004 RMK A01 T02110016  RH  027%=      5-min Rain = 0
KDC1 241503Z 12004KT 21/02 A3004 RMK A01 T02120022  RH  028%=      5-min Rain = 0
KDC1 241504Z 12005KT 21/03 A3004 RMK A01 T02120034  RH  031%=      5-min Rain = 0
KDC1 241505Z 12005KT 21/04 A3004 RMK A01 T02100039  RH  032%=      5-min Rain = 0
KDC1 241506Z 12005KT 21/03 A3004 RMK A01 T02100029  RH  030%=      5-min Rain = 0
KDC1 241507Z 13004KT 21/03 A3004 RMK A01 T02090032  RH  031%=      5-min Rain = 0
KDC1 241508Z 13004KT 21/04 A3004 RMK A01 T02080035  RH  032%=      5-min Rain = 0
KDC1 241509Z 13003KT 21/03 A3004 RMK A01 T02080028  RH  030%=      5-min Rain = 0
KDC1 241510Z 13003KT 21/03 A3004 RMK A01 T02080033  RH  031%=      5-min Rain = 0
KDC1 241511Z 12003KT 21/03 A3004 RMK A01 T02080031  RH  031%=      5-min Rain = 0
KDC1 241512Z 13003KT 21/02 A3004 RMK A01 T02080023  RH  029%=      5-min Rain = 0
KDC1 241513Z 14003KT 21/02 A3004 RMK A01 T02090023  RH  029%=      5-min Rain = 0
KDC1 241514Z 14003KT 21/03 A3004 RMK A01 T02100027  RH  030%=      5-min Rain = 0
KDC1 241515Z 16002KT 21/02 A3004 RMK A01 T02110022  RH  029%=      5-min Rain = 0
KDC1 241516Z 14003KT 21/01 A3004 RMK A01 T02120011  RH  026%=      5-min Rain = 0
KDC1 241517Z 14002KT 21/02 A3004 RMK A01 T02120020  RH  028%=      5-min Rain = 0
KDC1 241518Z 13002KT 21/01 A3004 RMK A01 T02130007  RH  025%=      5-min Rain = 0
KDC1 241519Z 11001KT 21/00 A3004 RMK A01 T02140004  RH  025%=      5-min Rain = 0
KDC1 241520Z 14001KT 22/M00 A3004 RMK A01 T02151001  RH  024%=      5-min Rain = 0
KDC1 241521Z 16001KT 22/M01 A3004 RMK A01 T02161008  RH  022%=      5-min Rain = 0
KDC1 241522Z 15001KT 22/M00 A3004 RMK A01 T02181004  RH  023%=      5-min Rain = 0
KDC1 241523Z 15002KT 22/00 A3004 RMK A01 T02190001  RH  023%=      5-min Rain = 0
KDC1 241524Z 13003KT 22/00 A3004 RMK A01 T02200002  RH  023%=      5-min Rain = 0
KDC1 241525Z 12003KT 22/03 A3004 RMK A01 T02210031  RH  029%=      5-min Rain = 0
KDC1 241526Z 11004KT 22/03 A3004 RMK A01 T02190033  RH  029%=      5-min Rain = 0
KDC1 241527Z 11003KT 22/03 A3004 RMK A01 T02180028  RH  029%=      5-min Rain = 0
KDC1 241528Z 11002KT 22/03 A3004 RMK A01 T02170033  RH  030%=      5-min Rain = 0
KDC1 241529Z 12003KT 22/03 A3004 RMK A01 T02170031  RH  029%=      5-min Rain = 0
KDC1 241530Z 11003KT 22/03 A3004 RMK A01 T02170030  RH  029%=      5-min Rain = 0
KDC1 241531Z 12004KT 22/04 A3004 RMK A01 T02170035  RH  030%=      5-min Rain = 0
KDC1 241532Z 12004KT 22/03 A3004 RMK A01 T02170034  RH  030%=      5-min Rain = 0
KDC1 241533Z 13004KT 22/04 A3004 RMK A01 T02170035  RH  030%=      5-min Rain = 0
KDC1 241534Z 12004KT 22/04 A3004 RMK A01 T02170039  RH  031%=      5-min Rain = 0
KDC1 241535Z 12005KT 22/04 A3004 RMK A01 T02170035  RH  030%=      5-min Rain = 0
KDC1 241536Z 12005KT 22/03 A3004 RMK A01 T02170033  RH  030%=      5-min Rain = 0
KDC1 241537Z 12003KT 22/03 A3004 RMK A01 T02170032  RH  030%=      5-min Rain = 0
KDC1 241538Z 12004KT 22/04 A3004 RMK A01 T02170038  RH  031%=      5-min Rain = 0
KDC1 241539Z 12003KT 22/04 A3004 RMK A01 T02180043  RH  032%=      5-min Rain = 0
KDC1 241540Z 12003KT 22/04 A3004 RMK A01 T02190042  RH  031%=      5-min Rain = 0
KDC1 241541Z 13003KT 22/03 A3004 RMK A01 T02200033  RH  029%=      5-min Rain = 0
KDC1 241542Z 15002KT 22/04 A3004 RMK A01 T02220039  RH  030%=      5-min Rain = 0
KDC1 241543Z 11004KT 22/04 A3004 RMK A01 T02230038  RH  030%=      5-min Rain = 0
KDC1 241544Z 12004KT 22/03 A3004 RMK A01 T02230029  RH  028%=      5-min Rain = 0
KDC1 241545Z 12003KT 22/03 A3004 RMK A01 T02220030  RH  028%=      5-min Rain = 0
KDC1 241546Z 11003KT 22/03 A3004 RMK A01 T02210028  RH  028%=      5-min Rain = 0
KDC1 241547Z 12003KT 22/03 A3004 RMK A01 T02220028  RH  028%=      5-min Rain = 0
KDC1 241548Z 12003KT 22/03 A3004 RMK A01 T02220028  RH  028%=      5-min Rain = 0
KDC1 241549Z 12003KT 22/03 A3004 RMK A01 T02230025  RH  027%=      5-min Rain = 0
KDC1 241550Z 11003KT 22/02 A3004 RMK A01 T02240020  RH  026%=      5-min Rain = 0
KDC1 241551Z 12003KT 22/03 A3004 RMK A01 T02230025  RH  027%=      5-min Rain = 0
KDC1 241552Z 09004KT 22/03 A3004 RMK A01 T02240026  RH  027%=      5-min Rain = 0
KDC1 241553Z 10003KT 22/02 A3004 RMK A01 T02240019  RH  026%=      5-min Rain = 0
KDC1 241554Z 11002KT 22/01 A3004 RMK A01 T02230013  RH  025%=      5-min Rain = 0
KDC1 241555Z 12002KT 22/02 A3004 RMK A01 T02230015  RH  025%=      5-min Rain = 0
KDC1 241556Z 11002KT 22/01 A3004 RMK A01 T02240012  RH  025%=      5-min Rain = 0
KDC1 241557Z 11002KT 23/01 A3004 RMK A01 T02250011  RH  024%=      5-min Rain = 0
KDC1 241558Z 12002KT 23/02 A3004 RMK A01 T02270016  RH  025%=      5-min Rain = 0
KDC1 241559Z 12002KT 23/02 A3004 RMK A01 T02280021  RH  026%=      5-min Rain = 0
KDC1 241600Z 12002KT 23/02 A3004 RMK A01 T02290019  RH  025%=      5-min Rain = 0
KDC1 241601Z 11002KT 23/01 A3004 RMK A01 T02300013  RH  024%=      5-min Rain = 0
KDC1 241602Z 11002KT 23/01 A3004 RMK A01 T02310009  RH  023%=      5-min Rain = 0
KDC1 241603Z 12003KT 23/03 A3004 RMK A01 T02320026  RH  026%=      5-min Rain = 0
KDC1 241604Z 12002KT 23/02 A3004 RMK A01 T02320015  RH  024%=      5-min Rain = 0
KDC1 241605Z 13002KT 23/01 A3004 RMK A01 T02320012  RH  023%=      5-min Rain = 0
KDC1 241606Z 14002KT 23/02 A3004 RMK A01 T02330016  RH  024%=      5-min Rain = 0
KDC1 241607Z 13002KT 23/01 A3004 RMK A01 T02340010  RH  023%=      5-min Rain = 0
KDC1 241608Z 12002KT 23/02 A3004 RMK A01 T02340024  RH  025%=      5-min Rain = 0
KDC1 241609Z 12003KT 23/02 A3004 RMK A01 T02340021  RH  025%=      5-min Rain = 0
KDC1 241610Z 12002KT 23/01 A3003 RMK A01 T02330014  RH  024%=      5-min Rain = 0
KDC1 241611Z 13002KT 23/01 A3003 RMK A01 T02330005  RH  022%=      5-min Rain = 0
KDC1 241612Z 13001KT 24/00 A3003 RMK A01 T02350000  RH  021%=      5-min Rain = 0
KDC1 241613Z 12002KT 24/00 A3003 RMK A01 T02370003  RH  021%=      5-min Rain = 0
KDC1 241614Z 12001KT 24/M01 A3003 RMK A01 T02381007  RH  020%=      5-min Rain = 0
KDC1 241615Z 12001KT 24/M01 A3003 RMK A01 T02391005  RH  020%=      5-min Rain = 0
KDC1 241616Z 14001KT 24/M00 A3003 RMK A01 T02421001  RH  020%=      5-min Rain = 0
KDC1 241617Z 12002KT 24/01 A3003 RMK A01 T02430008  RH  021%=      5-min Rain = 0
KDC1 241618Z 12002KT 24/01 A3003 RMK A01 T02420007  RH  021%=      5-min Rain = 0
KDC1 241619Z 12001KT 24/01 A3003 RMK A01 T02410005  RH  021%=      5-min Rain = 0
KDC1 241620Z 12001KT 24/00 A3003 RMK A01 T02410003  RH  021%=      5-min Rain = 0
KDC1 241621Z 12002KT 24/01 A3003 RMK A01 T02420007  RH  021%=      5-min Rain = 0
KDC1 241622Z 13001KT 24/00 A3003 RMK A01 T02410004  RH  021%=      5-min Rain = 0
KDC1 241623Z 13002KT 24/01 A3003 RMK A01 T02420006  RH  021%=      5-min Rain = 0
KDC1 241624Z 13002KT 24/M01 A3003 RMK A01 T02431007  RH  019%=      5-min Rain = 0
KDC1 241625Z 14002KT 24/00 A3003 RMK A01 T02440004  RH  021%=      5-min Rain = 0
KDC1 241626Z 14002KT 24/00 A3003 RMK A01 T02440003  RH  020%=      5-min Rain = 0
KDC1 241627Z 14002KT 24/01 A3003 RMK A01 T02420005  RH  021%=      5-min Rain = 0
KDC1 241628Z 13002KT 24/01 A3003 RMK A01 T02430006  RH  021%=      5-min Rain = 0
KDC1 241629Z 13002KT 24/01 A3003 RMK A01 T02440006  RH  021%=      5-min Rain = 0
KDC1 241630Z 15003KT 25/01 A3003 RMK A01 T02450006  RH  021%=      5-min Rain = 0
KDC1 241631Z 14002KT 25/01 A3003 RMK A01 T02450005  RH  021%=      5-min Rain = 0
KDC1 241632Z 14003KT 25/01 A3003 RMK A01 T02450009  RH  021%=      5-min Rain = 0
KDC1 241633Z 14003KT 25/M00 A3003 RMK A01 T02461001  RH  020%=      5-min Rain = 0
KDC1 241634Z 14002KT 25/01 A3003 RMK A01 T02460009  RH  021%=      5-min Rain = 0
KDC1 241635Z 13002KT 25/01 A3003 RMK A01 T02470010  RH  021%=      5-min Rain = 0
KDC1 241636Z 11004KT 25/01 A3003 RMK A01 T02480011  RH  021%=      5-min Rain = 0
KDC1 241637Z 11003KT 25/M00 A3003 RMK A01 T02471001  RH  019%=      5-min Rain = 0
KDC1 241638Z 12002KT 25/M01 A3003 RMK A01 T02461006  RH  019%=      5-min Rain = 0
KDC1 241639Z 14003KT 25/01 A3003 RMK A01 T02470008  RH  021%=      5-min Rain = 0
KDC1 241640Z 14002KT 25/00 A3003 RMK A01 T02480004  RH  020%=      5-min Rain = 0
KDC1 241641Z 14003KT 25/01 A3003 RMK A01 T02490010  RH  021%=      5-min Rain = 0
KDC1 241642Z 13002KT 25/01 A3003 RMK A01 T02490014  RH  022%=      5-min Rain = 0
KDC1 241643Z 13003KT 25/02 A3003 RMK A01 T02510022  RH  023%=      5-min Rain = 0
KDC1 241644Z 13003KT 25/02 A3003 RMK A01 T02520019  RH  022%=      5-min Rain = 0
KDC1 241645Z 13002KT 25/02 A3003 RMK A01 T02500022  RH  023%=      5-min Rain = 0
KDC1 241646Z 12003KT 25/02 A3003 RMK A01 T02510023  RH  023%=      5-min Rain = 0
KDC1 241647Z 12003KT 25/03 A3003 RMK A01 T02520026  RH  023%=      5-min Rain = 0
KDC1 241648Z 12004KT 25/00 A3003 RMK A01 T02520003  RH  019%=      5-min Rain = 0
KDC1 241649Z 12004KT 25/M00 A3003 RMK A01 T02531003  RH  019%=      5-min Rain = 0
KDC1 241650Z 11003KT 25/M02 A3003 RMK A01 T02531017  RH  017%=      5-min Rain = 0
KDC1 241651Z 12003KT 25/M02 A3003 RMK A01 T02541020  RH  016%=      5-min Rain = 0
KDC1 241652Z 12003KT 26/M02 A3003 RMK A01 T02551017  RH  016%=      5-min Rain = 0
KDC1 241653Z 13002KT 26/M01 A3003 RMK A01 T02571008  RH  017%=      5-min Rain = 0
KDC1 241654Z 12003KT 26/00 A3003 RMK A01 T02590000  RH  018%=      5-min Rain = 0
KDC1 241655Z 12003KT 26/M01 A3003 RMK A01 T02591009  RH  017%=      5-min Rain = 0
KDC1 241656Z 14003KT 26/01 A3003 RMK A01 T02590007  RH  019%=      5-min Rain = 0
KDC1 241657Z 14003KT 26/M00 A3003 RMK A01 T02581001  RH  018%=      5-min Rain = 0
KDC1 241658Z 13004KT 26/01 A3003 RMK A01 T02570009  RH  020%=      5-min Rain = 0
KDC1 241659Z 12003KT 26/M01 A3003 RMK A01 T02571009  RH  017%=      5-min Rain = 0
KDC1 241700Z 13002KT 26/M01 A3003 RMK A01 T02581014  RH  017%=      5-min Rain = 0
KDC1 241701Z 14003KT 26/M02 A3003 RMK A01 T02591016  RH  016%=      5-min Rain = 0
KDC1 241702Z 13003KT 26/M02 A3003 RMK A01 T02591017  RH  016%=      5-min Rain = 0
KDC1 241703Z 14001KT 26/M02 A3003 RMK A01 T02601022  RH  015%=      5-min Rain = 0
KDC1 241704Z 16002KT 26/M02 A3003 RMK A01 T02601021  RH  016%=      5-min Rain = 0
KDC1 241705Z 16002KT 26/M01 A3003 RMK A01 T02621005  RH  017%=      5-min Rain = 0
KDC1 241706Z 16002KT 26/01 A3003 RMK A01 T02630011  RH  019%=      5-min Rain = 0
KDC1 241707Z 14004KT 26/02 A3003 RMK A01 T02640016  RH  020%=      5-min Rain = 0
KDC1 241708Z 13003KT 26/00 A3003 RMK A01 T02640004  RH  018%=      5-min Rain = 0
KDC1 241709Z 14003KT 26/02 A3003 RMK A01 T02640024  RH  021%=      5-min Rain = 0
KDC1 241710Z 13003KT 26/01 A3003 RMK A01 T02640012  RH  019%=      5-min Rain = 0
KDC1 241711Z 14003KT 26/01 A3003 RMK A01 T02630014  RH  020%=      5-min Rain = 0
KDC1 241712Z 14003KT 26/01 A3003 RMK A01 T02630013  RH  020%=      5-min Rain = 0
KDC1 241713Z 13003KT 26/02 A3003 RMK A01 T02630017  RH  020%=      5-min Rain = 0
KDC1 241714Z 14004KT 27/01 A3003 RMK A01 T02650014  RH  020%=      5-min Rain = 0
KDC1 241715Z 14003KT 27/03 A3003 RMK A01 T02650026  RH  021%=      5-min Rain = 0
KDC1 241716Z 13004KT 27/03 A3003 RMK A01 T02650032  RH  022%=      5-min Rain = 0
KDC1 241717Z 13006KT 27/01 A3003 RMK A01 T02650012  RH  019%=      5-min Rain = 0
KDC1 241718Z 13005KT 27/00 A3003 RMK A01 T02650004  RH  018%=      5-min Rain = 0
KDC1 241719Z 13006KT 27/03 A3003 RMK A01 T02650025  RH  021%=      5-min Rain = 0
KDC1 241720Z 12006KT 27/02 A3003 RMK A01 T02660016  RH  020%=      5-min Rain = 0
KDC1 241721Z 12005KT 27/01 A3003 RMK A01 T02660011  RH  019%=      5-min Rain = 0
KDC1 241722Z 12005KT 27/01 A3003 RMK A01 T02660007  RH  018%=      5-min Rain = 0
KDC1 241723Z 12005KT 27/M01 A3003 RMK A01 T02661007  RH  017%=      5-min Rain = 0
KDC1 241724Z 14004KT 27/00 A3003 RMK A01 T02670004  RH  018%=      5-min Rain = 0
KDC1 241725Z 15004KT 27/01 A3003 RMK A01 T02670007  RH  018%=      5-min Rain = 0
KDC1 241726Z 16003KT 27/M01 A3002 RMK A01 T02671010  RH  016%=      5-min Rain = 0
KDC1 241727Z 13003KT 27/00 A3002 RMK A01 T02660003  RH  018%=      5-min Rain = 0
KDC1 241728Z 11004KT 27/M01 A3002 RMK A01 T02661008  RH  017%=      5-min Rain = 0
KDC1 241729Z 12003KT 27/M02 A3002 RMK A01 T02671022  RH  015%=      5-min Rain = 0
KDC1 241730Z 14002KT 27/M02 A3002 RMK A01 T02671015  RH  016%=      5-min Rain = 0
KDC1 241731Z 16002KT 27/M02 A3002 RMK A01 T02671018  RH  015%=      5-min Rain = 0
KDC1 241732Z 14003KT 27/02 A3002 RMK A01 T02690018  RH  020%=      5-min Rain = 0
KDC1 241733Z 13004KT 27/01 A3002 RMK A01 T02730013  RH  019%=      5-min Rain = 0
KDC1 241734Z 15004KT 27/02 A3002 RMK A01 T02730019  RH  019%=      5-min Rain = 0
KDC1 241735Z 16004KT 27/00 A3002 RMK A01 T027400-0  RH  017%=      5-min Rain = 0
KDC1 241736Z 15004KT 27/02 A3002 RMK A01 T02730015  RH  019%=      5-min Rain = 0
KDC1 241737Z 15003KT 27/00 A3002 RMK A01 T027100-0  RH  017%=      5-min Rain = 0
KDC1 241738Z 14003KT 27/M01 A3002 RMK A01 T02691005  RH  017%=      5-min Rain = 0
KDC1 241739Z 13003KT 27/M00 A3002 RMK A01 T02691003  RH  017%=      5-min Rain = 0
KDC1 241740Z 15002KT 27/M02 A3002 RMK A01 T02691016  RH  015%=      5-min Rain = 0
KDC1 241741Z 14004KT 27/M01 A3002 RMK A01 T02701008  RH  016%=      5-min Rain = 0
KDC1 241742Z 14003KT 27/M01 A3002 RMK A01 T02711011  RH  016%=      5-min Rain = 0
KDC1 241743Z 15002KT 27/M02 A3002 RMK A01 T02701022  RH  015%=      5-min Rain = 0
KDC1 241744Z 12001KT 27/M02 A3002 RMK A01 T02701020  RH  015%=      5-min Rain = 0
KDC1 241745Z 11003KT 27/M01 A3002 RMK A01 T02721008  RH  016%=      5-min Rain = 0
KDC1 241746Z 11003KT 27/M01 A3002 RMK A01 T02741012  RH  015%=      5-min Rain = 0
KDC1 241747Z 12003KT 27/M01 A3002 RMK A01 T02741013  RH  015%=      5-min Rain = 0
KDC1 241748Z 13003KT 27/M01 A3002 RMK A01 T02741008  RH  016%=      5-min Rain = 0
KDC1 241749Z 12003KT 27/M01 A3001 RMK A01 T02741008  RH  016%=      5-min Rain = 0
KDC1 241750Z 12002KT 28/M01 A3001 RMK A01 T02751005  RH  016%=      5-min Rain = 0
KDC1 241751Z 13002KT 27/00 A3001 RMK A01 T02740003  RH  017%=      5-min Rain = 0
KDC1 241752Z 14003KT 28/M01 A3001 RMK A01 T02751009  RH  016%=      5-min Rain = 0
KDC1 241753Z 13001KT 28/M02 A3001 RMK A01 T02751018  RH  015%=      5-min Rain = 0
KDC1 241754Z 14002KT 28/M01 A3001 RMK A01 T02761008  RH  016%=      5-min Rain = 0
KDC1 241755Z 14005KT 28/02 A3001 RMK A01 T02770019  RH  019%=      5-min Rain = 0
KDC1 241756Z 11005KT 28/01 A3001 RMK A01 T02770009  RH  018%=      5-min Rain = 0
KDC1 241757Z 10005KT 28/00 A3001 RMK A01 T02750001  RH  017%=      5-min Rain = 0
KDC1 241758Z 07004KT 27/M01 A3001 RMK A01 T02741014  RH  015%=      5-min Rain = 0
KDC1 241759Z 07004KT 27/M02 A3001 RMK A01 T02741015  RH  015%=      5-min Rain = 0
KDC1 241800Z 07003KT 27/M01 A3001 RMK A01 T02741014  RH  015%=      5-min Rain = 0
KDC1 241801Z 11004KT 27/M01 A3001 RMK A01 T02741013  RH  015%=      5-min Rain = 0
KDC1 241802Z 12004KT 27/00 A3001 RMK A01 T02740002  RH  017%=      5-min Rain = 0
KDC1 241803Z 13004KT 28/M00 A3001 RMK A01 T02751001  RH  017%=      5-min Rain = 0
KDC1 241804Z 11005KT 28/00 A3001 RMK A01 T02760001  RH  017%=      5-min Rain = 0
KDC1 241805Z 08003KT 28/M01 A3001 RMK A01 T02771008  RH  016%=      5-min Rain = 0
KDC1 241806Z 09004KT 28/M00 A3001 RMK A01 T02761001  RH  016%=      5-min Rain = 0
KDC1 241807Z 09005KT 28/M01 A3001 RMK A01 T02781009  RH  015%=      5-min Rain = 0
KDC1 241808Z 09004KT 28/M01 A3001 RMK A01 T02791010  RH  015%=      5-min Rain = 0
KDC1 241809Z 11004KT 28/M01 A3001 RMK A01 T02791005  RH  016%=      5-min Rain = 0
KDC1 241810Z 13005KT 28/04 A3001 RMK A01 T02800036  RH  021%=      5-min Rain = 0
KDC1 241811Z 13004KT 28/M00 A3001 RMK A01 T02821004  RH  016%=      5-min Rain = 0
KDC1 241812Z 15004KT 28/01 A3001 RMK A01 T02820006  RH  017%=      5-min Rain = 0
KDC1 241813Z 14005KT 28/03 A3001 RMK A01 T02810025  RH  019%=      5-min Rain = 0
KDC1 241814Z 14004KT 28/00 A30 RMK A01 T02800004  RH  017%=      5-min Rain = 0
KDC1 241815Z 16003KT 28/01 A30 RMK A01 T02810006  RH  017%=      5-min Rain = 0
KDC1 241816Z 13003KT 28/01 A30 RMK A01 T02830014  RH  018%=      5-min Rain = 0
KDC1 241817Z 11004KT 28/01 A30 RMK A01 T02840012  RH  017%=      5-min Rain = 0
KDC1 241818Z 13003KT 28/02 A30 RMK A01 T02840016  RH  018%=      5-min Rain = 0
KDC1 241819Z 13003KT 28/M01 A30 RMK A01 T02841007  RH  015%=      5-min Rain = 0
KDC1 241820Z 11003KT 28/M01 A30 RMK A01 T02841007  RH  015%=      5-min Rain = 0
KDC1 241821Z 10002KT 28/M01 A30 RMK A01 T02841008  RH  015%=      5-min Rain = 0
KDC1 241822Z 10003KT 28/M00 A30 RMK A01 T02831003  RH  015%=      5-min Rain = 0
KDC1 241823Z 07003KT 28/M00 A30 RMK A01 T02841002  RH  016%=      5-min Rain = 0
KDC1 241824Z 07003KT 29/M00 A30 RMK A01 T02851002  RH  016%=      5-min Rain = 0
KDC1 241825Z 06006KT 29/00 A30 RMK A01 T02870001  RH  016%=      5-min Rain = 0
KDC1 241826Z 06006KT 29/00 A30 RMK A01 T02860001  RH  016%=      5-min Rain = 0
KDC1 241827Z 08006KT 29/M00 A30 RMK A01 T02871001  RH  015%=      5-min Rain = 0
KDC1 241828Z 05005KT 29/M01 A30 RMK A01 T02871010  RH  014%=      5-min Rain = 0
KDC1 241829Z 08004KT 29/M01 A30 RMK A01 T02861009  RH  015%=      5-min Rain = 0
KDC1 241830Z 08004KT 29/M01 A30 RMK A01 T02851014  RH  014%=      5-min Rain = 0
KDC1 241831Z 09002KT 29/M02 A2999 RMK A01 T02851016  RH  014%=      5-min Rain = 0
KDC1 241832Z 10003KT 29/M01 A2999 RMK A01 T02861007  RH  015%=      5-min Rain = 0
KDC1 241833Z 12004KT 29/02 A2999 RMK A01 T02870016  RH  018%=      5-min Rain = 0
KDC1 241834Z 07005KT 29/M01 A2999 RMK A01 T02871008  RH  015%=      5-min Rain = 0
KDC1 241835Z 08004KT 29/M01 A2999 RMK A01 T02871014  RH  014%=      5-min Rain = 0
KDC1 241836Z 10002KT 29/M01 A2999 RMK A01 T02861013  RH  014%=      5-min Rain = 0
KDC1 241837Z 04004KT 29/M01 A2999 RMK A01 T02851013  RH  014%=      5-min Rain = 0
KDC1 241838Z 02004KT 29/M02 A2999 RMK A01 T02861017  RH  014%=      5-min Rain = 0
KDC1 241839Z 07005KT 29/M02 A2999 RMK A01 T02871015  RH  014%=      5-min Rain = 0
KDC1 241840Z 09004KT 29/M02 A2999 RMK A01 T02881015  RH  014%=      5-min Rain = 0
KDC1 241841Z 11003KT 29/M01 A2999 RMK A01 T02871012  RH  014%=      5-min Rain = 0
KDC1 241842Z 11002KT 29/M01 A2999 RMK A01 T02871013  RH  014%=      5-min Rain = 0
KDC1 241843Z 06002KT 29/M01 A2999 RMK A01 T02861013  RH  014%=      5-min Rain = 0
KDC1 241844Z 04003KT 29/M01 A2999 RMK A01 T02871012  RH  014%=      5-min Rain = 0
KDC1 241845Z 06003KT 29/M01 A2999 RMK A01 T02881012  RH  014%=      5-min Rain = 0
KDC1 241846Z 05005KT 29/M01 A2999 RMK A01 T02881010  RH  014%=      5-min Rain = 0
KDC1 241847Z 06004KT 29/M01 A2999 RMK A01 T02891010  RH  014%=      5-min Rain = 0
KDC1 241848Z 09005KT 29/00 A2999 RMK A01 T02880004  RH  016%=      5-min Rain = 0
KDC1 241849Z 11003KT 29/02 A2999 RMK A01 T02890022  RH  018%=      5-min Rain = 0
KDC1 241850Z 07006KT 29/01 A2999 RMK A01 T02900009  RH  016%=      5-min Rain = 0
KDC1 241851Z 06006KT 29/M01 A2998 RMK A01 T02911013  RH  014%=      5-min Rain = 0
KDC1 241852Z 04008KT 29/M01 A2998 RMK A01 T02931012  RH  014%=      5-min Rain = 0
KDC1 241853Z 03008KT 29/M02 A2998 RMK A01 T02931019  RH  013%=      5-min Rain = 0
KDC1 241854Z 02006KT 29/M02 A2998 RMK A01 T02911020  RH  013%=      5-min Rain = 0
KDC1 241855Z 01005KT 29/M02 A2998 RMK A01 T02891019  RH  013%=      5-min Rain = 0
KDC1 241856Z 35007KT 29/M02 A2998 RMK A01 T02891015  RH  014%=      5-min Rain = 0
KDC1 241857Z 35006KT 29/M02 A2998 RMK A01 T02891016  RH  014%=      5-min Rain = 0
KDC1 241858Z 01005KT 29/M01 A2998 RMK A01 T02901014  RH  014%=      5-min Rain = 0
KDC1 241859Z 04008KT 29/M01 A2998 RMK A01 T02901014  RH  014%=      5-min Rain = 0
KDC1 241900Z 04008KT 29/M02 A2998 RMK A01 T02891018  RH  013%=      5-min Rain = 0
KDC1 241901Z 08003KT 29/M02 A2998 RMK A01 T02881019  RH  013%=      5-min Rain = 0
KDC1 241902Z 04005G10KT 29/M02 A2998 RMK A01 T02881017  RH  014%=      5-min Rain = 0
KDC1 241903Z 04007KT 29/M02 A2998 RMK A01 T02901016  RH  014%=      5-min Rain = 0
KDC1 241904Z 05006KT 29/M01 A2998 RMK A01 T02891014  RH  014%=      5-min Rain = 0
KDC1 241905Z 07004KT 29/M02 A2998 RMK A01 T02891017  RH  014%=      5-min Rain = 0
KDC1 241906Z 08003KT 29/M02 A2998 RMK A01 T02891019  RH  013%=      5-min Rain = 0
KDC1 241907Z 08004KT 29/M02 A2998 RMK A01 T02891018  RH  013%=      5-min Rain = 0
KDC1 241908Z 07004KT 29/M02 A2998 RMK A01 T02891019  RH  013%=      5-min Rain = 0
KDC1 241909Z 08004KT 29/M02 A2998 RMK A01 T02901019  RH  013%=      5-min Rain = 0
KDC1 241910Z 06005KT 29/M02 A2998 RMK A01 T02901019  RH  013%=      5-min Rain = 0
KDC1 241911Z 08004KT 29/M02 A2998 RMK A01 T02921019  RH  013%=      5-min Rain = 0
KDC1 241912Z 05004KT 29/M02 A2997 RMK A01 T02941018  RH  013%=      5-min Rain = 0
KDC1 241913Z 05004KT 30/M02 A2997 RMK A01 T02951023  RH  013%=      5-min Rain = 0
KDC1 241914Z 06004KT 30/M02 A2997 RMK A01 T02951020  RH  013%=      5-min Rain = 0
KDC1 241915Z 06004KT 30/M02 A2997 RMK A01 T02951022  RH  013%=      5-min Rain = 0
KDC1 241916Z 06004KT 29/M02 A2997 RMK A01 T02941022  RH  013%=      5-min Rain = 0
KDC1 241917Z 08004KT 29/M02 A2997 RMK A01 T02941022  RH  013%=      5-min Rain = 0
KDC1 241918Z 08002KT 29/M02 A2997 RMK A01 T02921019  RH  013%=      5-min Rain = 0
KDC1 241919Z 32001KT 29/M02 A2997 RMK A01 T02911019  RH  013%=      5-min Rain = 0
KDC1 241920Z 07003KT 29/M02 A2997 RMK A01 T02911018  RH  013%=      5-min Rain = 0
KDC1 241921Z 07003KT 29/M02 A2997 RMK A01 T02931015  RH  013%=      5-min Rain = 0
KDC1 241922Z 06000KT 29/M02 A2997 RMK A01 T02941015  RH  013%=      5-min Rain = 0
KDC1 241923Z 03002KT 30/M02 A2997 RMK A01 T02951015  RH  013%=      5-min Rain = 0
KDC1 241924Z 09005KT 30/00 A2997 RMK A01 T02970004  RH  015%=      5-min Rain = 0
KDC1 241925Z 05005KT 30/M00 A2997 RMK A01 T02981004  RH  014%=      5-min Rain = 0
KDC1 241926Z 06005KT 30/M01 A2997 RMK A01 T02991013  RH  013%=      5-min Rain = 0
KDC1 241927Z 05004KT 30/M02 A2997 RMK A01 T02981015  RH  013%=      5-min Rain = 0
KDC1 241928Z 05005KT 30/M02 A2996 RMK A01 T02981015  RH  013%=      5-min Rain = 0
KDC1 241929Z 04005KT 30/M02 A2996 RMK A01 T02971017  RH  013%=      5-min Rain = 0
KDC1 241930Z 08004KT 30/M02 A2996 RMK A01 T02971017  RH  013%=      5-min Rain = 0
KDC1 241931Z 09004KT 30/M02 A2996 RMK A01 T02961018  RH  013%=      5-min Rain = 0
KDC1 241932Z 10004KT 30/M02 A2996 RMK A01 T02951016  RH  013%=      5-min Rain = 0
KDC1 241933Z 09005KT 30/M02 A2996 RMK A01 T02971017  RH  013%=      5-min Rain = 0
KDC1 241934Z 07003KT 30/M02 A2996 RMK A01 T02971019  RH  013%=      5-min Rain = 0
KDC1 241935Z 07007KT 30/M02 A2996 RMK A01 T02971018  RH  013%=      5-min Rain = 0
KDC1 241936Z 09006KT 30/M02 A2996 RMK A01 T02991015  RH  013%=      5-min Rain = 0
KDC1 241937Z 08004KT 30/M02 A2996 RMK A01 T03001016  RH  013%=      5-min Rain = 0
KDC1 241938Z 10005KT 30/M02 A2996 RMK A01 T03001016  RH  013%=      5-min Rain = 0
KDC1 241939Z 11005KT 30/M02 A2996 RMK A01 T02991017  RH  013%=      5-min Rain = 0
KDC1 241940Z 12006KT 30/02 A2996 RMK A01 T02990019  RH  017%=      5-min Rain = 0
KDC1 241941Z 14006KT 30/05 A2995 RMK A01 T02980046  RH  020%=      5-min Rain = 0
KDC1 241942Z 13007KT 30/04 A2995 RMK A01 T02970038  RH  019%=      5-min Rain = 0
KDC1 241943Z 13007KT 30/M01 A2995 RMK A01 T02971007  RH  014%=      5-min Rain = 0
KDC1 241944Z 09006KT 30/M01 A2995 RMK A01 T02961012  RH  014%=      5-min Rain = 0
KDC1 241945Z 10009KT 30/00 A2995 RMK A01 T02970000  RH  015%=      5-min Rain = 0
KDC1 241946Z 11008KT 30/M02 A2995 RMK A01 T02971016  RH  013%=      5-min Rain = 0
KDC1 241947Z 12008KT 30/00 A2995 RMK A01 T02960001  RH  015%=      5-min Rain = 0
KDC1 241948Z 12006KT 30/00 A2995 RMK A01 T02970001  RH  015%=      5-min Rain = 0
KDC1 241949Z 13005KT 30/M01 A2995 RMK A01 T02981007  RH  014%=      5-min Rain = 0
KDC1 241950Z 13005KT 30/00 A2995 RMK A01 T02970002  RH  015%=      5-min Rain = 0
KDC1 241951Z 08007KT 30/01 A2995 RMK A01 T02970007  RH  015%=      5-min Rain = 0
KDC1 241952Z 07006KT 30/M02 A2995 RMK A01 T03001020  RH  012%=      5-min Rain = 0
KDC1 241953Z 07008KT 30/M02 A2995 RMK A01 T03031017  RH  013%=      5-min Rain = 0
KDC1 241954Z 06006KT 30/M02 A2995 RMK A01 T03031018  RH  012%=      5-min Rain = 0
KDC1 241955Z 08005KT 30/M02 A2995 RMK A01 T03021018  RH  013%=      5-min Rain = 0
KDC1 241956Z 09003KT 30/M02 A2995 RMK A01 T03031018  RH  012%=      5-min Rain = 0
KDC1 241957Z 12007KT 30/03 A2995 RMK A01 T03030030  RH  018%=      5-min Rain = 0
KDC1 241958Z 13009KT 30/05 A2995 RMK A01 T03030045  RH  019%=      5-min Rain = 0
KDC1 241959Z 13008KT 30/02 A2995 RMK A01 T03010024  RH  017%=      5-min Rain = 0
KDC1 242000Z 12009KT 30/01 A2994 RMK A01 T03000013  RH  016%=      5-min Rain = 0
KDC1 242001Z 09006KT 30/M01 A2994 RMK A01 T03001014  RH  013%=      5-min Rain = 0
KDC1 242002Z 07005KT 30/M03 A2994 RMK A01 T02991026  RH  012%=      5-min Rain = 0
KDC1 242003Z 11005KT 30/M02 A2994 RMK A01 T02981024  RH  012%=      5-min Rain = 0
KDC1 242004Z 12005KT 30/M01 A2994 RMK A01 T02981008  RH  014%=      5-min Rain = 0
KDC1 242005Z 13008KT 30/02 A2994 RMK A01 T02980016  RH  016%=      5-min Rain = 0
KDC1 242006Z 12010KT 30/03 A2994 RMK A01 T02990029  RH  018%=      5-min Rain = 0
KDC1 242007Z 12005KT 30/M01 A2994 RMK A01 T02991011  RH  013%=      5-min Rain = 0
KDC1 242008Z 12009KT 30/02 A2994 RMK A01 T03000016  RH  016%=      5-min Rain = 0
KDC1 242009Z 11007KT 30/02 A2994 RMK A01 T03010015  RH  016%=      5-min Rain = 0
KDC1 242010Z 11006KT 30/00 A2994 RMK A01 T030200-0  RH  014%=      5-min Rain = 0
KDC1 242011Z 09007KT 30/00 A2994 RMK A01 T03010001  RH  014%=      5-min Rain = 0
KDC1 242012Z 10008KT 30/M02 A2994 RMK A01 T03021017  RH  013%=      5-min Rain = 0
KDC1 242013Z 09006KT 30/M02 A2994 RMK A01 T03001022  RH  012%=      5-min Rain = 0
KDC1 242014Z 08005KT 30/M03 A2994 RMK A01 T03001026  RH  012%=      5-min Rain = 0
KDC1 242015Z 07004KT 30/M03 A2994 RMK A01 T03011027  RH  012%=      5-min Rain = 0
KDC1 242016Z 10004KT 30/M03 A2994 RMK A01 T03021025  RH  012%=      5-min Rain = 0
KDC1 242017Z 14004KT 30/M02 A2994 RMK A01 T03031021  RH  012%=      5-min Rain = 0
KDC1 242018Z 15004G10KT 30/M00 A2994 RMK A01 T03041002  RH  014%=      5-min Rain = 0
KDC1 242019Z 20006G13KT 31/01 A2994 RMK A01 T03050013  RH  016%=      5-min Rain = 0
KDC1 242020Z 15005KT 31/02 A2994 RMK A01 T03050018  RH  016%=      5-min Rain = 0
KDC1 242021Z 15004KT 31/02 A2994 RMK A01 T03060019  RH  016%=      5-min Rain = 0
KDC1 242022Z 13003KT 31/01 A2994 RMK A01 T03050009  RH  015%=      5-min Rain = 0
KDC1 242023Z 11002KT 30/M01 A2994 RMK A01 T03041006  RH  014%=      5-min Rain = 0
KDC1 242024Z 14003KT 30/02 A2994 RMK A01 T03020016  RH  016%=      5-min Rain = 0
KDC1 242025Z 13002KT 30/M01 A2994 RMK A01 T03031010  RH  013%=      5-min Rain = 0
KDC1 242026Z 09002KT 30/M01 A2994 RMK A01 T03041012  RH  013%=      5-min Rain = 0
KDC1 242027Z 09002KT 31/M02 A2994 RMK A01 T03051021  RH  012%=      5-min Rain = 0
KDC1 242028Z 13001KT 30/M02 A2993 RMK A01 T03041021  RH  012%=      5-min Rain = 0
KDC1 242029Z 16002KT 31/02 A2993 RMK A01 T03060019  RH  016%=      5-min Rain = 0
KDC1 242030Z 12003KT 31/03 A2993 RMK A01 T03080028  RH  017%=      5-min Rain = 0
KDC1 242031Z 09002KT 31/00 A2993 RMK A01 T03080002  RH  014%=      5-min Rain = 0
KDC1 242032Z 04004KT 31/M01 A2993 RMK A01 T03071009  RH  013%=      5-min Rain = 0
KDC1 242033Z 10005KT 31/M02 A2993 RMK A01 T03071017  RH  012%=      5-min Rain = 0
KDC1 242034Z 14008KT 31/02 A2993 RMK A01 T03080015  RH  015%=      5-min Rain = 0
KDC1 242035Z 14008KT 31/03 A2993 RMK A01 T03090025  RH  017%=      5-min Rain = 0
KDC1 242036Z 14010KT 31/02 A2993 RMK A01 T03080020  RH  016%=      5-min Rain = 0
KDC1 242037Z 15009KT 31/05 A2993 RMK A01 T03070047  RH  019%=      5-min Rain = 0
KDC1 242038Z 20005KT 31/03 A2993 RMK A01 T03070026  RH  017%=      5-min Rain = 0
KDC1 242039Z 20007KT 31/M01 A2993 RMK A01 T03081009  RH  013%=      5-min Rain = 0
KDC1 242040Z 19008KT 31/M02 A2993 RMK A01 T03101020  RH  012%=      5-min Rain = 0
KDC1 242041Z 18010KT 31/M01 A2992 RMK A01 T03111007  RH  013%=      5-min Rain = 0
KDC1 242042Z 18009KT 31/M00 A2993 RMK A01 T03091001  RH  014%=      5-min Rain = 0
KDC1 242043Z 19007KT 31/M01 A2993 RMK A01 T03071005  RH  013%=      5-min Rain = 0
KDC1 242044Z 23005KT 31/M01 A2993 RMK A01 T03081006  RH  013%=      5-min Rain = 0
KDC1 242045Z 24010KT 31/01 A2993 RMK A01 T03130005  RH  014%=      5-min Rain = 0
KDC1 242046Z 25008KT 32/M02 A2993 RMK A01 T03151015  RH  012%=      5-min Rain = 0
KDC1 242047Z 26008KT 32/M03 A2993 RMK A01 T03161030  RH  011%=      5-min Rain = 0
KDC1 242048Z 24008KT 32/M01 A2993 RMK A01 T03161007  RH  013%=      5-min Rain = 0
KDC1 242049Z 24007KT 32/M02 A2993 RMK A01 T03161017  RH  012%=      5-min Rain = 0
KDC1 242050Z 26007KT 32/M03 A2992 RMK A01 T03151026  RH  011%=      5-min Rain = 0
KDC1 242051Z 27008KT 31/M02 A2992 RMK A01 T03141023  RH  011%=      5-min Rain = 0
KDC1 242052Z 27008KT 31/M04 A2992 RMK A01 T03141037  RH  010%=      5-min Rain = 0
KDC1 242053Z 26006KT 31/M03 A2992 RMK A01 T03141034  RH  010%=      5-min Rain = 0
KDC1 242054Z 27007KT 32/M03 A2992 RMK A01 T03151030  RH  011%=      5-min Rain = 0
KDC1 242055Z 24007KT 32/M03 A2992 RMK A01 T03151025  RH  011%=      5-min Rain = 0
KDC1 242056Z 26008KT 31/M03 A2992 RMK A01 T03141029  RH  011%=      5-min Rain = 0
KDC1 242057Z 27007KT 32/M02 A2992 RMK A01 T03151019  RH  012%=      5-min Rain = 0
KDC1 242058Z 26007KT 32/M03 A2992 RMK A01 T03151031  RH  011%=      5-min Rain = 0
KDC1 242059Z 25008KT 32/M03 A2992 RMK A01 T03161030  RH  011%=      5-min Rain = 0
KDC1 242100Z 24006KT 32/M02 A2992 RMK A01 T03161022  RH  011%=      5-min Rain = 0
KDC1 242101Z 20004KT 32/M02 A2992 RMK A01 T03161019  RH  012%=      5-min Rain = 0
KDC1 242102Z 20006KT 32/M00 A2992 RMK A01 T03171002  RH  013%=      5-min Rain = 0
KDC1 242103Z 20004KT 32/M02 A2992 RMK A01 T03181020  RH  011%=      5-min Rain = 0
KDC1 242104Z 22005KT 32/M03 A2992 RMK A01 T03171029  RH  011%=      5-min Rain = 0
KDC1 242105Z 20003KT 32/M03 A2992 RMK A01 T03151026  RH  011%=      5-min Rain = 0
KDC1 242106Z 17004KT 32/M03 A2992 RMK A01 T03171028  RH  011%=      5-min Rain = 0
KDC1 242107Z 16007KT 32/01 A2992 RMK A01 T03180007  RH  014%=      5-min Rain = 0
KDC1 242108Z 17009KT 32/M01 A2992 RMK A01 T03161008  RH  012%=      5-min Rain = 0
KDC1 242109Z 16009KT 31/00 A2991 RMK A01 T03120002  RH  014%=      5-min Rain = 0
KDC1 242110Z 15005KT 31/M03 A2991 RMK A01 T03101029  RH  011%=      5-min Rain = 0
KDC1 242111Z 13004KT 31/M03 A2991 RMK A01 T03091029  RH  011%=      5-min Rain = 0
KDC1 242112Z 13004KT 31/M01 A2991 RMK A01 T03101009  RH  013%=      5-min Rain = 0
KDC1 242113Z 17005KT 31/01 A2991 RMK A01 T03110012  RH  015%=      5-min Rain = 0
KDC1 242114Z 21003KT 31/M00 A2991 RMK A01 T03121004  RH  013%=      5-min Rain = 0
KDC1 242115Z 28000KT 31/M02 A2991 RMK A01 T03141019  RH  012%=      5-min Rain = 0
KDC1 242116Z 15001G7KT 32/M03 A2991 RMK A01 T03181029  RH  011%=      5-min Rain = 0
KDC1 242117Z 16006KT 32/01 A2991 RMK A01 T03190008  RH  014%=      5-min Rain = 0
KDC1 242118Z 15003KT 32/01 A2991 RMK A01 T03170006  RH  014%=      5-min Rain = 0
KDC1 242119Z 13004KT 32/03 A2991 RMK A01 T03170031  RH  016%=      5-min Rain = 0
KDC1 242120Z 11002KT 32/M02 A2991 RMK A01 T03161024  RH  011%=      5-min Rain = 0
KDC1 242121Z 28001KT 32/M04 A2991 RMK A01 T03161038  RH  010%=      5-min Rain = 0
KDC1 242122Z 23001KT 32/M04 A2991 RMK A01 T03161038  RH  010%=      5-min Rain = 0
KDC1 242123Z 19004KT 32/M04 A2991 RMK A01 T03171035  RH  010%=      5-min Rain = 0
KDC1 242124Z 26004KT 32/M03 A2991 RMK A01 T03181032  RH  010%=      5-min Rain = 0
KDC1 242125Z 25004KT 32/M03 A2991 RMK A01 T03181032  RH  010%=      5-min Rain = 0
KDC1 242126Z 23002KT 32/M03 A2991 RMK A01 T03171027  RH  011%=      5-min Rain = 0
KDC1 242127Z 17003KT 32/M01 A2991 RMK A01 T03181009  RH  012%=      5-min Rain = 0
KDC1 242128Z 18002KT 32/M01 A2991 RMK A01 T03181011  RH  012%=      5-min Rain = 0
KDC1 242129Z 23003KT 32/M01 A2991 RMK A01 T03181011  RH  012%=      5-min Rain = 0
KDC1 242130Z 22004KT 32/M01 A2991 RMK A01 T03201014  RH  012%=      5-min Rain = 0
KDC1 242131Z 22004KT 32/M02 A2991 RMK A01 T03191018  RH  011%=      5-min Rain = 0
KDC1 242132Z 26002KT 32/M02 A2991 RMK A01 T03181024  RH  011%=      5-min Rain = 0
KDC1 242133Z 28001KT 32/M03 A2991 RMK A01 T03181027  RH  011%=      5-min Rain = 0
KDC1 242134Z 17001KT 32/M02 A299 RMK A01 T03201023  RH  011%=      5-min Rain = 0
KDC1 242135Z 19004KT 32/M03 A2991 RMK A01 T03211025  RH  011%=      5-min Rain = 0
KDC1 242136Z 19004KT 32/M00 A2991 RMK A01 T03211002  RH  013%=      5-min Rain = 0
KDC1 242137Z 23005KT 32/M01 A2991 RMK A01 T03211007  RH  012%=      5-min Rain = 0
KDC1 242138Z 23006KT 32/M02 A2991 RMK A01 T03231021  RH  011%=      5-min Rain = 0
KDC1 242139Z 25007KT 32/M04 A299 RMK A01 T03231038  RH  010%=      5-min Rain = 0
KDC1 242140Z 23005KT 32/M04 A299 RMK A01 T03211043  RH  009%=      5-min Rain = 0
KDC1 242141Z 22004KT 32/M03 A299 RMK A01 T03221030  RH  010%=      5-min Rain = 0
KDC1 242142Z 23003KT 32/M02 A299 RMK A01 T03231018  RH  011%=      5-min Rain = 0
KDC1 242143Z 22007KT 32/M03 A299 RMK A01 T03241026  RH  010%=      5-min Rain = 0
KDC1 242144Z 21004KT 32/M03 A299 RMK A01 T03241033  RH  010%=      5-min Rain = 0
KDC1 242145Z 23004KT 32/M03 A299 RMK A01 T03241026  RH  010%=      5-min Rain = 0
KDC1 242146Z 22006KT 33/M03 A299 RMK A01 T03251032  RH  010%=      5-min Rain = 0
KDC1 242147Z 24009KT 33/M02 A299 RMK A01 T03251020  RH  011%=      5-min Rain = 0
KDC1 242148Z 24010KT 32/M01 A299 RMK A01 T03221014  RH  011%=      5-min Rain = 0
KDC1 242149Z 24011KT 32/M03 A299 RMK A01 T03211028  RH  010%=      5-min Rain = 0
KDC1 242150Z 23007KT 32/M05 A299 RMK A01 T03201046  RH  009%=      5-min Rain = 0
KDC1 242151Z 24010KT 32/M03 A299 RMK A01 T03201027  RH  011%=      5-min Rain = 0
KDC1 242152Z 26008KT 32/M01 A299 RMK A01 T03201007  RH  012%=      5-min Rain = 0
KDC1 242153Z 24006KT 32/M01 A299 RMK A01 T03201006  RH  012%=      5-min Rain = 0
KDC1 242154Z 23007G12KT 32/00 A299 RMK A01 T03200001  RH  013%=      5-min Rain = 0
KDC1 242155Z 24007KT 32/M02 A299 RMK A01 T03231022  RH  011%=      5-min Rain = 0
KDC1 242156Z 23008KT 32/M03 A299 RMK A01 T03231031  RH  010%=      5-min Rain = 0
KDC1 242157Z 22006KT 32/M04 A299 RMK A01 T03231037  RH  010%=      5-min Rain = 0
KDC1 242158Z 23005KT 32/M03 A299 RMK A01 T03221032  RH  010%=      5-min Rain = 0
KDC1 242159Z 22005KT 32/M03 A299 RMK A01 T03231030  RH  010%=      5-min Rain = 0
KDC1 242200Z 24011G16KT 32/M02 A299 RMK A01 T03221016  RH  011%=      5-min Rain = 0
KDC1 242201Z 24010KT 32/M03 A299 RMK A01 T03201025  RH  011%=      5-min Rain = 0
KDC1 242202Z 24009KT 32/M03 A299 RMK A01 T03191031  RH  010%=      5-min Rain = 0
KDC1 242203Z 25010KT 32/M03 A2989 RMK A01 T03191027  RH  011%=      5-min Rain = 0
KDC1 242204Z 26007KT 32/M03 A2989 RMK A01 T03181028  RH  011%=      5-min Rain = 0
KDC1 242205Z 25006KT 32/M03 A2989 RMK A01 T03181032  RH  010%=      5-min Rain = 0
KDC1 242206Z 26007KT 32/M02 A2989 RMK A01 T03211023  RH  011%=      5-min Rain = 0
KDC1 242207Z 25005KT 32/M03 A2989 RMK A01 T03201034  RH  010%=      5-min Rain = 0
KDC1 242208Z 25006KT 32/M01 A2989 RMK A01 T03181013  RH  012%=      5-min Rain = 0
KDC1 242209Z 25006KT 32/M02 A2989 RMK A01 T03191020  RH  011%=      5-min Rain = 0
KDC1 242210Z 24006KT 32/M01 A2989 RMK A01 T03201010  RH  012%=      5-min Rain = 0
KDC1 242211Z 23005KT 32/M02 A2989 RMK A01 T03211016  RH  011%=      5-min Rain = 0
KDC1 242212Z 22004KT 32/M01 A2989 RMK A01 T03201011  RH  012%=      5-min Rain = 0
KDC1 242213Z 21007G13KT 32/M01 A2989 RMK A01 T03191012  RH  012%=      5-min Rain = 0
KDC1 242214Z 22007KT 32/M01 A2989 RMK A01 T03191014  RH  012%=      5-min Rain = 0
KDC1 242215Z 21005G10KT 32/M01 A2989 RMK A01 T03201005  RH  012%=      5-min Rain = 0
KDC1 242216Z 21005G10KT 32/M00 A2989 RMK A01 T03221001  RH  013%=      5-min Rain = 0
KDC1 242217Z 20004KT 32/M01 A2989 RMK A01 T03241011  RH  012%=      5-min Rain = 0
KDC1 242218Z 21005KT 33/M01 A2989 RMK A01 T03261012  RH  011%=      5-min Rain = 0
KDC1 242219Z 23007KT 33/M02 A2989 RMK A01 T03261024  RH  010%=      5-min Rain = 0
KDC1 242220Z 23007KT 32/M03 A2989 RMK A01 T03241025  RH  011%=      5-min Rain = 0
KDC1 242221Z 22006KT 32/M01 A2989 RMK A01 T03221014  RH  011%=      5-min Rain = 0
KDC1 242222Z 22007KT 32/M02 A2989 RMK A01 T03221015  RH  011%=      5-min Rain = 0
KDC1 242223Z 22005KT 32/M02 A2989 RMK A01 T03221022  RH  011%=      5-min Rain = 0
KDC1 242224Z 20003KT 32/M03 A2989 RMK A01 T03221027  RH  010%=      5-min Rain = 0
KDC1 242225Z 20005KT 32/M03 A2989 RMK A01 T03241025  RH  010%=      5-min Rain = 0
KDC1 242226Z 20006KT 32/M02 A2989 RMK A01 T03241020  RH  011%=      5-min Rain = 0
KDC1 242227Z 20008KT 32/M02 A2989 RMK A01 T03241022  RH  011%=      5-min Rain = 0
KDC1 242228Z 21013G19KT 32/M02 A2988 RMK A01 T03221015  RH  011%=      5-min Rain = 0
KDC1 242229Z 28013KT 32/M01 A2988 RMK A01 T03191005  RH  013%=      5-min Rain = 0
KDC1 242230Z 29010KT 32/M03 A2989 RMK A01 T03211027  RH  011%=      5-min Rain = 0
KDC1 242231Z 29007KT 32/M03 A2989 RMK A01 T03211030  RH  010%=      5-min Rain = 0
KDC1 242232Z 28007KT 32/M02 A2989 RMK A01 T03221020  RH  011%=      5-min Rain = 0
KDC1 242233Z 28008KT 32/M03 A2989 RMK A01 T03241029  RH  010%=      5-min Rain = 0
KDC1 242234Z 26007KT 32/M04 A2989 RMK A01 T03221041  RH  009%=      5-min Rain = 0
KDC1 242235Z 25007KT 32/M04 A2989 RMK A01 T03201039  RH  010%=      5-min Rain = 0
KDC1 242236Z 24007KT 32/M01 A2989 RMK A01 T03181013  RH  012%=      5-min Rain = 0
KDC1 242237Z 23006KT 32/M03 A2989 RMK A01 T03191028  RH  011%=      5-min Rain = 0
KDC1 242238Z 24009KT 32/M02 A2989 RMK A01 T03191020  RH  011%=      5-min Rain = 0
KDC1 242239Z 23008G14KT 32/M03 A2988 RMK A01 T03201031  RH  010%=      5-min Rain = 0
KDC1 242240Z 24007KT 32/M03 A2989 RMK A01 T03201025  RH  011%=      5-min Rain = 0
KDC1 242241Z 24009KT 32/M00 A2989 RMK A01 T03201004  RH  013%=      5-min Rain = 0
KDC1 242242Z 23010KT 32/M01 A2989 RMK A01 T03201014  RH  012%=      5-min Rain = 0
KDC1 242243Z 23009KT 32/M01 A2989 RMK A01 T03191013  RH  012%=      5-min Rain = 0
KDC1 242244Z 24007KT 32/M01 A2989 RMK A01 T03181014  RH  012%=      5-min Rain = 0
KDC1 242245Z 24009KT 32/M02 A2989 RMK A01 T03191019  RH  011%=      5-min Rain = 0
KDC1 242246Z 24010KT 32/M01 A2988 RMK A01 T03191011  RH  012%=      5-min Rain = 0
KDC1 242247Z 24008KT 32/01 A2989 RMK A01 T03180006  RH  014%=      5-min Rain = 0
KDC1 242248Z 22005KT 32/00 A2988 RMK A01 T03170003  RH  013%=      5-min Rain = 0
KDC1 242249Z 22005G10KT 32/M01 A2989 RMK A01 T03171013  RH  012%=      5-min Rain = 0
KDC1 242250Z 24005KT 32/01 A2988 RMK A01 T03180006  RH  014%=      5-min Rain = 0
KDC1 242251Z 24007KT 32/M01 A2989 RMK A01 T03191009  RH  012%=      5-min Rain = 0
KDC1 242252Z 23005G10KT 32/M03 A2989 RMK A01 T03191028  RH  011%=      5-min Rain = 0
KDC1 242253Z 25005KT 32/M03 A2989 RMK A01 T03191025  RH  011%=      5-min Rain = 0
KDC1 242254Z 24005KT 32/M03 A2989 RMK A01 T03201027  RH  011%=      5-min Rain = 0
KDC1 242255Z 24009KT 32/M03 A2989 RMK A01 T03211025  RH  011%=      5-min Rain = 0
KDC1 242256Z 23010KT 32/M02 A2989 RMK A01 T03211015  RH  011%=      5-min Rain = 0
KDC1 242257Z 23008KT 32/M02 A2989 RMK A01 T03201022  RH  011%=      5-min Rain = 0
KDC1 242258Z 24007KT 32/M02 A2989 RMK A01 T03191021  RH  011%=      5-min Rain = 0
KDC1 242259Z 24010KT 32/M00 A2989 RMK A01 T03191002  RH  013%=      5-min Rain = 0
KDC1 242300Z 24008KT 32/02 A2989 RMK A01 T03170020  RH  015%=      5-min Rain = 0
KDC1 242301Z 25008KT 32/01 A2989 RMK A01 T03160007  RH  014%=      5-min Rain = 0
KDC1 242302Z 24008KT 32/M01 A2989 RMK A01 T03161009  RH  012%=      5-min Rain = 0
KDC1 242303Z 24005KT 32/M02 A2988 RMK A01 T03161016  RH  012%=      5-min Rain = 0
KDC1 242304Z 25008KT 32/M01 A2988 RMK A01 T03171013  RH  012%=      5-min Rain = 0
KDC1 242305Z 25009KT 32/M03 A2988 RMK A01 T03201029  RH  010%=      5-min Rain = 0
KDC1 242306Z 24005KT 32/M04 A2988 RMK A01 T03201036  RH  010%=      5-min Rain = 0
KDC1 242307Z 23005KT 32/M01 A2988 RMK A01 T03201013  RH  012%=      5-min Rain = 0
KDC1 242308Z 23006KT 32/M01 A2988 RMK A01 T03201006  RH  012%=      5-min Rain = 0
KDC1 242309Z 24008KT 32/M02 A2988 RMK A01 T03201015  RH  012%=      5-min Rain = 0
KDC1 242310Z 24006KT 32/M03 A2988 RMK A01 T03191026  RH  011%=      5-min Rain = 0
KDC1 242311Z 25008KT 32/M01 A2988 RMK A01 T03191010  RH  012%=      5-min Rain = 0
KDC1 242312Z 25006KT 32/M01 A2988 RMK A01 T03181013  RH  012%=      5-min Rain = 0
KDC1 242313Z 25007KT 32/M01 A2988 RMK A01 T03191014  RH  012%=      5-min Rain = 0
KDC1 242314Z 24009G14KT 32/M00 A2988 RMK A01 T03191001  RH  013%=      5-min Rain = 0
KDC1 242315Z 25007KT 32/00 A2988 RMK A01 T03180001  RH  013%=      5-min Rain = 0
KDC1 242316Z 24007KT 32/01 A2988 RMK A01 T03170006  RH  014%=      5-min Rain = 0
KDC1 242317Z 21006KT 32/00 A2988 RMK A01 T03170004  RH  013%=      5-min Rain = 0
KDC1 242318Z 21006KT 32/01 A2988 RMK A01 T03180006  RH  014%=      5-min Rain = 0
KDC1 242319Z 20005KT 32/M01 A2988 RMK A01 T03181014  RH  012%=      5-min Rain = 0
KDC1 242320Z 21005KT 32/M02 A2988 RMK A01 T03191021  RH  011%=      5-min Rain = 0
KDC1 242321Z 20005KT 32/M02 A2988 RMK A01 T03181018  RH  011%=      5-min Rain = 0
KDC1 242322Z 21004KT 32/M02 A2988 RMK A01 T03181017  RH  011%=      5-min Rain = 0
KDC1 242323Z 21005G10KT 32/M02 A2988 RMK A01 T03181021  RH  011%=      5-min Rain = 0
KDC1 242324Z 21005KT 32/M02 A2988 RMK A01 T03181024  RH  011%=      5-min Rain = 0
KDC1 242325Z 21005KT 32/M02 A2988 RMK A01 T03181020  RH  011%=      5-min Rain = 0
KDC1 242326Z 24005KT 32/M02 A2988 RMK A01 T03181023  RH  011%=      5-min Rain = 0
KDC1 242327Z 24004KT 32/M01 A2988 RMK A01 T03201011  RH  012%=      5-min Rain = 0
KDC1 242328Z 25007KT 32/01 A2988 RMK A01 T03220005  RH  013%=      5-min Rain = 0
KDC1 242329Z 24011KT 32/01 A2988 RMK A01 T03210012  RH  014%=      5-min Rain = 0
KDC1 242330Z 24012KT 32/00 A2987 RMK A01 T031700-0  RH  013%=      5-min Rain = 0
KDC1 242331Z 25011KT 31/01 A2988 RMK A01 T03140009  RH  014%=      5-min Rain = 0
KDC1 242332Z 24011KT 31/M01 A2987 RMK A01 T03121013  RH  012%=      5-min Rain = 0
KDC1 242333Z 24009KT 31/M01 A2988 RMK A01 T03121008  RH  013%=      5-min Rain = 0
KDC1 242334Z 25010KT 31/01 A2988 RMK A01 T03130005  RH  014%=      5-min Rain = 0
KDC1 242335Z 25010KT 31/M02 A2987 RMK A01 T03121016  RH  012%=      5-min Rain = 0
KDC1 242336Z 24007KT 31/M01 A2987 RMK A01 T03121014  RH  012%=      5-min Rain = 0
KDC1 242337Z 24006KT 31/M01 A2987 RMK A01 T03131013  RH  012%=      5-min Rain = 0
KDC1 242338Z 24005KT 32/M02 A2987 RMK A01 T03151019  RH  012%=      5-min Rain = 0
KDC1 242339Z 24006KT 32/M03 A2987 RMK A01 T03161030  RH  011%=      5-min Rain = 0
KDC1 242340Z 24005KT 32/M03 A2987 RMK A01 T03171032  RH  010%=      5-min Rain = 0
KDC1 242341Z 20004KT 32/M02 A2987 RMK A01 T03181016  RH  012%=      5-min Rain = 0
KDC1 242342Z 21006KT 32/M02 A2987 RMK A01 T03181015  RH  012%=      5-min Rain = 0
KDC1 242343Z 23006KT 32/M04 A2987 RMK A01 T03171036  RH  010%=      5-min Rain = 0
KDC1 242344Z 24006KT 32/M04 A2987 RMK A01 T03171037  RH  010%=      5-min Rain = 0
KDC1 242345Z 21004KT 32/M03 A2987 RMK A01 T03181032  RH  010%=      5-min Rain = 0
KDC1 242346Z 21006KT 32/M03 A2987 RMK A01 T03181030  RH  010%=      5-min Rain = 0
KDC1 242347Z 23004KT 32/M03 A2987 RMK A01 T03171026  RH  011%=      5-min Rain = 0
KDC1 242348Z 24007KT 32/M03 A2987 RMK A01 T03181027  RH  011%=      5-min Rain = 0
KDC1 242349Z 24007KT 32/M03 A2987 RMK A01 T03181029  RH  010%=      5-min Rain = 0
KDC1 242350Z 24007KT 32/M01 A2987 RMK A01 T03181009  RH  012%=      5-min Rain = 0
KDC1 242351Z 25009KT 32/01 A2987 RMK A01 T03170013  RH  014%=      5-min Rain = 0
KDC1 242352Z 25009KT 32/00 A2987 RMK A01 T03150001  RH  013%=      5-min Rain = 0
KDC1 242353Z 26010KT 31/M02 A2987 RMK A01 T03141023  RH  011%=      5-min Rain = 0
KDC1 242354Z 26011KT 32/M04 A2987 RMK A01 T03151035  RH  010%=      5-min Rain = 0
KDC1 242355Z 25007KT 32/M04 A2987 RMK A01 T03151038  RH  010%=      5-min Rain = 0
KDC1 242356Z 25005KT 31/M02 A2987 RMK A01 T03141024  RH  011%=      5-min Rain = 0
KDC1 242357Z 24004KT 31/M02 A2987 RMK A01 T03141015  RH  012%=      5-min Rain = 0
KDC1 242358Z 21003KT 31/M02 A2987 RMK A01 T03141023  RH  011%=      5-min Rain = 0
KDC1 242359Z 19003KT 32/M02 A2987 RMK A01 T03151022  RH  011%=      5-min Rain = 0
KDC1 250000Z 23003KT 32/M04 A2987 RMK A01 T03161043  RH  010%=      5-min Rain = 0
KDC1 250001Z 24003KT 32/M04 A2987 RMK A01 T03161041  RH  010%=      5-min Rain = 0
KDC1 250002Z 24004KT 32/M03 A2987 RMK A01 T03171025  RH  011%=      5-min Rain = 0
KDC1 250003Z 25006KT 32/M01 A2987 RMK A01 T03181011  RH  012%=      5-min Rain = 0
KDC1 250004Z 24006KT 32/M00 A2987 RMK A01 T03171002  RH  013%=      5-min Rain = 0
KDC1 250005Z 24005KT 32/00 A2987 RMK A01 T03150001  RH  013%=      5-min Rain = 0
KDC1 250006Z 23006KT 31/00 A2987 RMK A01 T03140004  RH  014%=      5-min Rain = 0
KDC1 250007Z 25006KT 31/M01 A2987 RMK A01 T03141011  RH  012%=      5-min Rain = 0
KDC1 250008Z 25007KT 31/00 A2987 RMK A01 T03140001  RH  013%=      5-min Rain = 0
KDC1 250009Z 25007KT 31/01 A2987 RMK A01 T03130008  RH  014%=      5-min Rain = 0
KDC1 250010Z 25009KT 31/01 A2987 RMK A01 T03100010  RH  015%=      5-min Rain = 0
KDC1 250011Z 24007KT 31/01 A2987 RMK A01 T03080011  RH  015%=      5-min Rain = 0
KDC1 250012Z 25008KT 31/01 A2987 RMK A01 T03070014  RH  015%=      5-min Rain = 0
KDC1 250013Z 25008KT 31/00 A2987 RMK A01 T03050003  RH  014%=      5-min Rain = 0
KDC1 250014Z 24009KT 31/00 A2987 RMK A01 T03050002  RH  014%=      5-min Rain = 0
KDC1 250015Z 24008KT 30/01 A2987 RMK A01 T03040007  RH  015%=      5-min Rain = 0
KDC1 250016Z 25007KT 30/02 A2987 RMK A01 T03030016  RH  016%=      5-min Rain = 0
KDC1 250017Z 25010KT 30/02 A2987 RMK A01 T03010019  RH  016%=      5-min Rain = 0
KDC1 250018Z 26011KT 30/00 A2987 RMK A01 T03000003  RH  015%=      5-min Rain = 0
KDC1 250019Z 28012KT 30/M03 A2987 RMK A01 T03031031  RH  011%=      5-min Rain = 0
KDC1 250020Z 26010KT 31/M05 A2987 RMK A01 T03091045  RH  010%=      5-min Rain = 0
KDC1 250021Z 26007KT 31/M04 A2987 RMK A01 T03121036  RH  010%=      5-min Rain = 0
KDC1 250022Z 25009KT 31/M03 A2987 RMK A01 T03131026  RH  011%=      5-min Rain = 0
KDC1 250023Z 25011KT 31/M03 A2987 RMK A01 T03121029  RH  011%=      5-min Rain = 0
KDC1 250024Z 23008KT 31/M04 A2987 RMK A01 T03111035  RH  010%=      5-min Rain = 0
KDC1 250025Z 21005KT 31/M04 A2987 RMK A01 T03111036  RH  010%=      5-min Rain = 0
KDC1 250026Z 21005KT 31/M03 A2987 RMK A01 T03111034  RH  011%=      5-min Rain = 0
KDC1 250027Z 24006KT 31/M04 A2987 RMK A01 T03111039  RH  010%=      5-min Rain = 0
KDC1 250028Z 24006KT 31/M03 A2987 RMK A01 T03111032  RH  011%=      5-min Rain = 0
KDC1 250029Z 24008KT 31/M02 A2987 RMK A01 T03111019  RH  012%=      5-min Rain = 0
KDC1 250030Z 26009KT 31/M02 A2987 RMK A01 T03101015  RH  012%=      5-min Rain = 0
KDC1 250031Z 26008KT 31/M01 A2987 RMK A01 T03081012  RH  013%=      5-min Rain = 0
KDC1 250032Z 26007KT 31/M00 A2987 RMK A01 T03071002  RH  014%=      5-min Rain = 0
KDC1 250033Z 27009KT 31/M01 A2987 RMK A01 T03061011  RH  013%=      5-min Rain = 0
KDC1 250034Z 27010KT 31/M02 A2987 RMK A01 T03061021  RH  012%=      5-min Rain = 0
KDC1 250035Z 28011KT 31/M01 A2987 RMK A01 T03071009  RH  013%=      5-min Rain = 0
KDC1 250036Z 28011KT 31/M00 A2987 RMK A01 T03051004  RH  014%=      5-min Rain = 0
KDC1 250037Z 28010KT 30/M01 A2987 RMK A01 T03031006  RH  014%=      5-min Rain = 0
KDC1 250038Z 27009KT 30/M01 A2987 RMK A01 T03021005  RH  014%=      5-min Rain = 0
KDC1 250039Z 27008KT 30/00 A2987 RMK A01 T03010002  RH  015%=      5-min Rain = 0
KDC1 250040Z 26006KT 30/M00 A2987 RMK A01 T03011001  RH  014%=      5-min Rain = 0
KDC1 250041Z 27008KT 30/M01 A2987 RMK A01 T03011005  RH  014%=      5-min Rain = 0
KDC1 250042Z 26009KT 30/M01 A2987 RMK A01 T03031005  RH  014%=      5-min Rain = 0
KDC1 250043Z 26008KT 30/00 A2987 RMK A01 T03010004  RH  015%=      5-min Rain = 0
KDC1 250044Z 26010KT 30/01 A2987 RMK A01 T02980010  RH  016%=      5-min Rain = 0
KDC1 250045Z 26011KT 30/00 A2987 RMK A01 T02950004  RH  015%=      5-min Rain = 0
KDC1 250046Z 25011KT 30/00 A2987 RMK A01 T02950000  RH  015%=      5-min Rain = 0
KDC1 250047Z 26011KT 30/M01 A2987 RMK A01 T02951006  RH  014%=      5-min Rain = 0
KDC1 250048Z 26009KT 30/M01 A2987 RMK A01 T02951007  RH  014%=      5-min Rain = 0
KDC1 250049Z 26010KT 30/M01 A2987 RMK A01 T02961012  RH  014%=      5-min Rain = 0
KDC1 250050Z 26010KT 30/M01 A2987 RMK A01 T02971014  RH  013%=      5-min Rain = 0
KDC1 250051Z 27011KT 30/M01 A2987 RMK A01 T02971014  RH  013%=      5-min Rain = 0
KDC1 250052Z 27011KT 30/M02 A2987 RMK A01 T02981023  RH  012%=      5-min Rain = 0
KDC1 250053Z 27009KT 30/M03 A2987 RMK A01 T03011030  RH  011%=      5-min Rain = 0
KDC1 250054Z 26009KT 30/M03 A2987 RMK A01 T03031026  RH  012%=      5-min Rain = 0
KDC1 250055Z 26008KT 30/M02 A2987 RMK A01 T03031022  RH  012%=      5-min Rain = 0
KDC1 250056Z 26008KT 30/M03 A2987 RMK A01 T03031026  RH  012%=      5-min Rain = 0
KDC1 250057Z 27006KT 30/M00 A2987 RMK A01 T03021003  RH  014%=      5-min Rain = 0
KDC1 250058Z 27007KT 30/01 A2987 RMK A01 T02990005  RH  015%=      5-min Rain = 0
KDC1 250059Z 27008KT 30/01 A2987 RMK A01 T02970007  RH  015%=      5-min Rain = 0
KDC1 250100Z 27009KT 30/00 A2987 RMK A01 T02960001  RH  015%=      5-min Rain = 0
KDC1 250101Z 27009KT 30/M01 A2987 RMK A01 T02961007  RH  014%=      5-min Rain = 0
KDC1 250102Z 27009KT 30/M00 A2987 RMK A01 T02961002  RH  015%=      5-min Rain = 0
KDC1 250103Z 27010KT 30/00 A2987 RMK A01 T029500-0  RH  015%=      5-min Rain = 0
KDC1 250104Z 27009KT 29/00 A2987 RMK A01 T02940004  RH  015%=      5-min Rain = 0
KDC1 250105Z 27009KT 29/00 A2987 RMK A01 T02920004  RH  015%=      5-min Rain = 0
KDC1 250106Z 27009KT 29/01 A2987 RMK A01 T02920006  RH  016%=      5-min Rain = 0
KDC1 250107Z 27008KT 29/01 A2987 RMK A01 T02910007  RH  016%=      5-min Rain = 0
KDC1 250108Z 27008KT 29/02 A2987 RMK A01 T02900015  RH  017%=      5-min Rain = 0
KDC1 250109Z 27008KT 29/02 A2987 RMK A01 T02880020  RH  018%=      5-min Rain = 0
KDC1 250110Z 26007KT 29/03 A2987 RMK A01 T02860027  RH  019%=      5-min Rain = 0
KDC1 250111Z 26007KT 28/03 A2987 RMK A01 T02840027  RH  019%=      5-min Rain = 0
KDC1 250112Z 26006KT 28/03 A2987 RMK A01 T02830025  RH  019%=      5-min Rain = 0
KDC1 250113Z 27007KT 28/03 A2987 RMK A01 T02820027  RH  019%=      5-min Rain = 0
KDC1 250114Z 28007KT 28/02 A2987 RMK A01 T02810021  RH  019%=      5-min Rain = 0
KDC1 250115Z 27007KT 28/02 A2987 RMK A01 T02810022  RH  019%=      5-min Rain = 0
KDC1 250116Z 27006KT 28/02 A2987 RMK A01 T02810020  RH  019%=      5-min Rain = 0
KDC1 250117Z 27006KT 28/02 A2987 RMK A01 T02820015  RH  018%=      5-min Rain = 0
KDC1 250118Z 27006KT 28/01 A2987 RMK A01 T02830011  RH  017%=      5-min Rain = 0
KDC1 250119Z 27007KT 28/01 A2987 RMK A01 T02840014  RH  017%=      5-min Rain = 0
KDC1 250120Z 26006KT 28/01 A2987 RMK A01 T02840011  RH  017%=      5-min Rain = 0
KDC1 250121Z 27007KT 28/01 A2987 RMK A01 T02840007  RH  017%=      5-min Rain = 0
KDC1 250122Z 27006KT 28/01 A2987 RMK A01 T02840007  RH  017%=      5-min Rain = 0
KDC1 250123Z 27008KT 28/01 A2987 RMK A01 T02830013  RH  017%=      5-min Rain = 0
KDC1 250124Z 27007KT 28/01 A2987 RMK A01 T02810009  RH  017%=      5-min Rain = 0
KDC1 250125Z 27007KT 28/01 A2987 RMK A01 T02810012  RH  018%=      5-min Rain = 0
KDC1 250126Z 27006KT 28/01 A2987 RMK A01 T02790010  RH  018%=      5-min Rain = 0
KDC1 250127Z 27006KT 28/02 A2987 RMK A01 T02780018  RH  019%=      5-min Rain = 0
KDC1 250128Z 28007KT 28/02 A2987 RMK A01 T02750023  RH  020%=      5-min Rain = 0
KDC1 250129Z 28010KT 27/03 A2987 RMK A01 T02730026  RH  020%=      5-min Rain = 0
KDC1 250130Z 28010KT 27/03 A2987 RMK A01 T02700029  RH  021%=      5-min Rain = 0
KDC1 250131Z 28010KT 27/03 A2987 RMK A01 T02680029  RH  021%=      5-min Rain = 0
KDC1 250132Z 28009KT 27/03 A2987 RMK A01 T02660029  RH  022%=      5-min Rain = 0
KDC1 250133Z 27008KT 26/03 A2987 RMK A01 T02640031  RH  022%=      5-min Rain = 0
KDC1 250134Z 28008KT 26/03 A2987 RMK A01 T02620032  RH  023%=      5-min Rain = 0
KDC1 250135Z 28009KT 26/03 A2987 RMK A01 T02600034  RH  023%=      5-min Rain = 0
KDC1 250136Z 28009KT 26/04 A2987 RMK A01 T02580036  RH  024%=      5-min Rain = 0
KDC1 250137Z 28009KT 26/04 A2987 RMK A01 T02560037  RH  024%=      5-min Rain = 0
KDC1 250138Z 28009KT 26/04 A2987 RMK A01 T02550036  RH  024%=      5-min Rain = 0
KDC1 250139Z 28009KT 25/04 A2987 RMK A01 T02540036  RH  024%=      5-min Rain = 0
KDC1 250140Z 28008KT 25/04 A2987 RMK A01 T02530035  RH  024%=      5-min Rain = 0
KDC1 250141Z 28009KT 25/03 A2987 RMK A01 T02530033  RH  024%=      5-min Rain = 0
KDC1 250142Z 28008KT 25/03 A2987 RMK A01 T02530032  RH  024%=      5-min Rain = 0
KDC1 250143Z 28008KT 25/03 A2987 RMK A01 T02530032  RH  024%=      5-min Rain = 0
KDC1 250144Z 27007KT 25/03 A2987 RMK A01 T02520033  RH  024%=      5-min Rain = 0
KDC1 250145Z 27006KT 25/04 A2987 RMK A01 T02510036  RH  025%=      5-min Rain = 0
KDC1 250146Z 27007KT 25/03 A2987 RMK A01 T02490033  RH  025%=      5-min Rain = 0
KDC1 250147Z 27008KT 25/03 A2987 RMK A01 T02480030  RH  024%=      5-min Rain = 0
KDC1 250148Z 28007KT 25/03 A2987 RMK A01 T02480028  RH  024%=      5-min Rain = 0
KDC1 250149Z 28006KT 25/03 A2987 RMK A01 T02480028  RH  024%=      5-min Rain = 0
KDC1 250150Z 28006KT 25/03 A2987 RMK A01 T02470030  RH  024%=      5-min Rain = 0
KDC1 250151Z 28007KT 25/03 A2987 RMK A01 T02460034  RH  025%=      5-min Rain = 0
KDC1 250152Z 29007KT 24/04 A2987 RMK A01 T02440038  RH  026%=      5-min Rain = 0
KDC1 250153Z 29006KT 24/04 A2987 RMK A01 T02430040  RH  027%=      5-min Rain = 0
KDC1 250154Z 29006KT 24/04 A2987 RMK A01 T02410042  RH  027%=      5-min Rain = 0
KDC1 250155Z 28005KT 24/05 A2987 RMK A01 T02400045  RH  028%=      5-min Rain = 0
KDC1 250156Z 29005KT 24/05 A2988 RMK A01 T02370048  RH  029%=      5-min Rain = 0
KDC1 250157Z 29004KT 24/05 A2988 RMK A01 T02350053  RH  031%=      5-min Rain = 0
KDC1 250158Z 28005KT 23/05 A2988 RMK A01 T02320054  RH  031%=      5-min Rain = 0
KDC1 250159Z 28005KT 23/06 A2988 RMK A01 T02300056  RH  032%=      5-min Rain = 0
KDC1 250200Z 28004KT 23/06 A2988 RMK A01 T02290055  RH  033%=      5-min Rain = 0
KDC1 250201Z 28003KT 23/06 A2988 RMK A01 T02270056  RH  033%=      5-min Rain = 0
KDC1 250202Z 28003KT 23/06 A2988 RMK A01 T02260056  RH  033%=      5-min Rain = 0
KDC1 250203Z 28003KT 23/06 A2988 RMK A01 T02250058  RH  034%=      5-min Rain = 0
KDC1 250204Z 29003KT 22/06 A2988 RMK A01 T02240060  RH  034%=      5-min Rain = 0
KDC1 250205Z 29003KT 22/06 A2988 RMK A01 T02240061  RH  035%=      5-min Rain = 0
KDC1 250206Z 30003KT 22/06 A2988 RMK A01 T02240060  RH  035%=      5-min Rain = 0
KDC1 250207Z 30002KT 22/06 A2988 RMK A01 T02240058  RH  034%=      5-min Rain = 0
KDC1 250208Z 31002KT 22/06 A2988 RMK A01 T02240059  RH  034%=      5-min Rain = 0
KDC1 250209Z 31002KT 22/06 A2988 RMK A01 T02240058  RH  034%=      5-min Rain = 0
KDC1 250210Z 31002KT 22/06 A2988 RMK A01 T02240058  RH  034%=      5-min Rain = 0
KDC1 250211Z 31002KT 22/06 A2988 RMK A01 T02240057  RH  034%=      5-min Rain = 0
KDC1 250212Z 31002KT 22/06 A2988 RMK A01 T02240059  RH  034%=      5-min Rain = 0
KDC1 250213Z 31002KT 22/06 A2988 RMK A01 T02240062  RH  035%=      5-min Rain = 0
KDC1 250214Z 31002KT 22/06 A2988 RMK A01 T02240064  RH  036%=      5-min Rain = 0
KDC1 250215Z 31002KT 22/07 A2988 RMK A01 T02230067  RH  036%=      5-min Rain = 0
KDC1 250216Z 31002KT 22/07 A2988 RMK A01 T02230067  RH  036%=      5-min Rain = 0
KDC1 250217Z 31003KT 22/07 A2988 RMK A01 T02230067  RH  036%=      5-min Rain = 0
KDC1 250218Z 31003KT 22/05 A2988 RMK A01 T02220054  RH  033%=      5-min Rain = 0
KDC1 250219Z 31003KT 22/04 A2988 RMK A01 T02220044  RH  031%=      5-min Rain = 0
KDC1 250220Z 31003KT 22/04 A2988 RMK A01 T02220039  RH  030%=      5-min Rain = 0
KDC1 250221Z 32003KT 22/04 A2988 RMK A01 T02220040  RH  030%=      5-min Rain = 0
KDC1 250222Z 31004KT 22/05 A2988 RMK A01 T02210047  RH  032%=      5-min Rain = 0
KDC1 250223Z 32004KT 22/05 A2988 RMK A01 T02190045  RH  032%=      5-min Rain = 0
KDC1 250224Z 33004KT 22/04 A2988 RMK A01 T02180042  RH  032%=      5-min Rain = 0
KDC1 250225Z 33004KT 22/04 A2989 RMK A01 T02170038  RH  031%=      5-min Rain = 0
KDC1 250226Z 34003KT 22/04 A2989 RMK A01 T02170039  RH  031%=      5-min Rain = 0
KDC1 250227Z 35004KT 22/04 A2989 RMK A01 T02160042  RH  032%=      5-min Rain = 0
KDC1 250228Z 34005KT 22/04 A2989 RMK A01 T02150043  RH  032%=      5-min Rain = 0
KDC1 250229Z 35005KT 22/04 A2989 RMK A01 T02150041  RH  032%=      5-min Rain = 0
KDC1 250230Z 00004KT 21/03 A2989 RMK A01 T02140034  RH  031%=      5-min Rain = 0
KDC1 250231Z 01005KT 22/03 A2989 RMK A01 T02160030  RH  029%=      5-min Rain = 0
KDC1 250232Z 01004KT 22/03 A2989 RMK A01 T02180031  RH  029%=      5-min Rain = 0
KDC1 250233Z 02005KT 22/03 A2989 RMK A01 T02190029  RH  029%=      5-min Rain = 0
KDC1 250234Z 01005KT 22/03 A2989 RMK A01 T02190030  RH  029%=      5-min Rain = 0
KDC1 250235Z 01004KT 22/03 A2989 RMK A01 T02190029  RH  029%=      5-min Rain = 0
KDC1 250236Z 02005KT 22/03 A2989 RMK A01 T02200030  RH  029%=      5-min Rain = 0
KDC1 250237Z 02005KT 22/03 A2989 RMK A01 T02190029  RH  029%=      5-min Rain = 0
KDC1 250238Z 02005KT 22/03 A299 RMK A01 T02180029  RH  029%=      5-min Rain = 0
KDC1 250239Z 02004KT 22/03 A299 RMK A01 T02170030  RH  029%=      5-min Rain = 0
KDC1 250240Z 02005KT 22/03 A299 RMK A01 T02170031  RH  029%=      5-min Rain = 0
KDC1 250241Z 02004KT 22/03 A299 RMK A01 T02160030  RH  029%=      5-min Rain = 0
KDC1 250242Z 02004KT 22/03 A299 RMK A01 T02160030  RH  029%=      5-min Rain = 0
KDC1 250243Z 02005KT 22/03 A299 RMK A01 T02150032  RH  030%=      5-min Rain = 0
KDC1 250244Z 02006KT 22/03 A299 RMK A01 T02150032  RH  030%=      5-min Rain = 0
KDC1 250245Z 02005KT 21/03 A299 RMK A01 T02140032  RH  030%=      5-min Rain = 0
KDC1 250246Z 02005KT 21/03 A299 RMK A01 T02140030  RH  030%=      5-min Rain = 0
KDC1 250247Z 02005KT 21/03 A299 RMK A01 T02140031  RH  030%=      5-min Rain = 0
KDC1 250248Z 02005KT 21/03 A299 RMK A01 T02140030  RH  030%=      5-min Rain = 0
KDC1 250249Z 01005KT 21/03 A299 RMK A01 T02140031  RH  030%=      5-min Rain = 0
KDC1 250250Z 01005KT 21/03 A299 RMK A01 T02140028  RH  029%=      5-min Rain = 0
KDC1 250251Z 01005KT 21/03 A299 RMK A01 T02130026  RH  029%=      5-min Rain = 0
KDC1 250252Z 01005KT 21/03 A299 RMK A01 T02130025  RH  029%=      5-min Rain = 0
KDC1 250253Z 01005KT 21/02 A299 RMK A01 T02130024  RH  029%=      5-min Rain = 0
KDC1 250254Z 01006KT 21/02 A299 RMK A01 T02140023  RH  028%=      5-min Rain = 0
KDC1 250255Z 01005KT 22/02 A2989 RMK A01 T02150023  RH  028%=      5-min Rain = 0
KDC1 250256Z 00005KT 22/02 A2989 RMK A01 T02160022  RH  028%=      5-min Rain = 0
KDC1 250257Z 00005KT 22/02 A2989 RMK A01 T02160021  RH  028%=      5-min Rain = 0
KDC1 250258Z 01006KT 22/02 A2989 RMK A01 T02160023  RH  028%=      5-min Rain = 0
KDC1 250259Z 01006KT 22/03 A2989 RMK A01 T02150027  RH  029%=      5-min Rain = 0
KDC1 250300Z 01006KT 22/03 A2989 RMK A01 T02150026  RH  029%=      5-min Rain = 0
KDC1 250301Z 01006KT 21/02 A2989 RMK A01 T02140020  RH  028%=      5-min Rain = 0
KDC1 250302Z 01006KT 21/02 A2989 RMK A01 T02130016  RH  027%=      5-min Rain = 0
KDC1 250303Z 00006KT 21/01 A2989 RMK A01 T02130013  RH  027%=      5-min Rain = 0
KDC1 250304Z 36006KT 21/02 A2989 RMK A01 T02130019  RH  028%=      5-min Rain = 0
KDC1 250305Z 35006KT 21/04 A2989 RMK A01 T02130038  RH  032%=      5-min Rain = 0
KDC1 250306Z 35006KT 21/04 A2989 RMK A01 T02130042  RH  033%=      5-min Rain = 0
KDC1 250307Z 35006KT 21/03 A2989 RMK A01 T02130031  RH  030%=      5-min Rain = 0
KDC1 250308Z 35006KT 21/02 A2989 RMK A01 T02130018  RH  027%=      5-min Rain = 0
KDC1 250309Z 35006KT 22/01 A299 RMK A01 T02150006  RH  025%=      5-min Rain = 0
KDC1 250310Z 34006KT 22/01 A299 RMK A01 T02180011  RH  025%=      5-min Rain = 0
KDC1 250311Z 34006KT 22/04 A299 RMK A01 T02180035  RH  030%=      5-min Rain = 0
KDC1 250312Z 34005KT 21/06 A299 RMK A01 T02140056  RH  036%=      5-min Rain = 0
KDC1 250313Z 33005KT 21/06 A299 RMK A01 T02090062  RH  038%=      5-min Rain = 0
KDC1 250314Z 33005KT 21/06 A299 RMK A01 T02060063  RH  039%=      5-min Rain = 0
KDC1 250315Z 33006KT 20/06 A299 RMK A01 T02040059  RH  039%=      5-min Rain = 0
KDC1 250316Z 33006KT 20/05 A299 RMK A01 T02040052  RH  037%=      5-min Rain = 0
KDC1 250317Z 33007KT 20/04 A299 RMK A01 T02040041  RH  034%=      5-min Rain = 0
KDC1 250318Z 33008KT 21/03 A299 RMK A01 T02060031  RH  031%=      5-min Rain = 0
KDC1 250319Z 34008KT 21/03 A299 RMK A01 T02090028  RH  030%=      5-min Rain = 0
KDC1 250320Z 34007KT 21/03 A299 RMK A01 T02090033  RH  031%=      5-min Rain = 0
KDC1 250321Z 34007KT 21/03 A299 RMK A01 T02090029  RH  030%=      5-min Rain = 0
KDC1 250322Z 34007KT 21/04 A299 RMK A01 T02090037  RH  032%=      5-min Rain = 0
KDC1 250323Z 34007KT 21/04 A299 RMK A01 T02080039  RH  033%=      5-min Rain = 0
KDC1 250324Z 34007KT 21/04 A299 RMK A01 T02060042  RH  034%=      5-min Rain = 0
KDC1 250325Z 34007KT 20/05 A299 RMK A01 T02040048  RH  036%=      5-min Rain = 0
KDC1 250326Z 34007KT 20/05 A299 RMK A01 T02030045  RH  036%=      5-min Rain = 0
KDC1 250327Z 33007KT 20/05 A299 RMK A01 T02020048  RH  036%=      5-min Rain = 0
KDC1 250328Z 34007KT 20/05 A299 RMK A01 T02010051  RH  037%=      5-min Rain = 0
KDC1 250329Z 34007KT 20/05 A299 RMK A01 T01990051  RH  038%=      5-min Rain = 0
KDC1 250330Z 34007KT 20/05 A299 RMK A01 T01970053  RH  039%=      5-min Rain = 0
KDC1 250331Z 34008KT 20/05 A299 RMK A01 T01960054  RH  039%=      5-min Rain = 0
KDC1 250332Z 34007KT 20/05 A299 RMK A01 T01950052  RH  039%=      5-min Rain = 0
KDC1 250333Z 34007KT 19/05 A299 RMK A01 T01940051  RH  039%=      5-min Rain = 0
KDC1 250334Z 34007KT 19/05 A299 RMK A01 T01940052  RH  039%=      5-min Rain = 0
KDC1 250335Z 33007KT 19/05 A299 RMK A01 T01930054  RH  040%=      5-min Rain = 0
KDC1 250336Z 33007KT 19/06 A299 RMK A01 T01920057  RH  041%=      5-min Rain = 0
KDC1 250337Z 33007KT 19/06 A299 RMK A01 T01910058  RH  042%=      5-min Rain = 0
KDC1 250338Z 33007KT 19/06 A299 RMK A01 T01890058  RH  042%=      5-min Rain = 0
KDC1 250339Z 32008KT 19/06 A299 RMK A01 T01880058  RH  042%=      5-min Rain = 0
KDC1 250340Z 32008KT 19/06 A299 RMK A01 T01870057  RH  042%=      5-min Rain = 0
KDC1 250341Z 32008KT 19/05 A2991 RMK A01 T01870053  RH  041%=      5-min Rain = 0
KDC1 250342Z 32008KT 19/05 A2991 RMK A01 T01870050  RH  040%=      5-min Rain = 0
KDC1 250343Z 31007KT 19/05 A2991 RMK A01 T01870048  RH  040%=      5-min Rain = 0
KDC1 250344Z 31008KT 19/05 A2991 RMK A01 T01870049  RH  040%=      5-min Rain = 0
KDC1 250345Z 32009KT 19/05 A2991 RMK A01 T01870048  RH  040%=      5-min Rain = 0
KDC1 250346Z 32008KT 19/04 A299 RMK A01 T01880038  RH  037%=      5-min Rain = 0
KDC1 250347Z 32009KT 19/04 A299 RMK A01 T01920035  RH  035%=      5-min Rain = 0
KDC1 250348Z 32009KT 19/03 A299 RMK A01 T01940034  RH  034%=      5-min Rain = 0
KDC1 250349Z 32008KT 20/03 A299 RMK A01 T01960033  RH  034%=      5-min Rain = 0
KDC1 250350Z 32009KT 20/04 A299 RMK A01 T01960044  RH  037%=      5-min Rain = 0
KDC1 250351Z 32009KT 19/05 A299 RMK A01 T01930045  RH  038%=      5-min Rain = 0
KDC1 250352Z 32009KT 19/05 A299 RMK A01 T01910048  RH  039%=      5-min Rain = 0
KDC1 250353Z 32008KT 19/04 A299 RMK A01 T01890044  RH  038%=      5-min Rain = 0
KDC1 250354Z 32008KT 19/04 A299 RMK A01 T01880040  RH  038%=      5-min Rain = 0
KDC1 250355Z 32008KT 19/04 A299 RMK A01 T01880040  RH  038%=      5-min Rain = 0
KDC1 250356Z 32008KT 19/04 A2991 RMK A01 T01890038  RH  037%=      5-min Rain = 0
KDC1 250357Z 31008KT 19/03 A2991 RMK A01 T01890031  RH  035%=      5-min Rain = 0
KDC1 250358Z 31007KT 19/04 A2991 RMK A01 T01900040  RH  037%=      5-min Rain = 0
KDC1 250359Z 31007KT 19/04 A2991 RMK A01 T01890043  RH  038%=      5-min Rain = 0
KDC1 250400Z 31007KT 19/04 A2991 RMK A01 T01870043  RH  039%=      5-min Rain = 0
KDC1 250401Z 31007KT 19/05 A2991 RMK A01 T01850045  RH  040%=      5-min Rain = 0
KDC1 250402Z 30006KT 18/04 A2991 RMK A01 T01830042  RH  039%=      5-min Rain = 0
KDC1 250403Z 30006KT 18/04 A2991 RMK A01 T01830036  RH  038%=      5-min Rain = 0
KDC1 250404Z 30007KT 18/04 A2991 RMK A01 T01840036  RH  037%=      5-min Rain = 0
KDC1 250405Z 30008KT 18/04 A2991 RMK A01 T01840037  RH  038%=      5-min Rain = 0
KDC1 250406Z 30008KT 18/04 A2991 RMK A01 T01840040  RH  038%=      5-min Rain = 0
KDC1 250407Z 30007KT 18/03 A2991 RMK A01 T01840034  RH  037%=      5-min Rain = 0
KDC1 250408Z 31007KT 18/03 A2991 RMK A01 T01840029  RH  036%=      5-min Rain = 0
KDC1 250409Z 30006KT 19/03 A2992 RMK A01 T01850028  RH  035%=      5-min Rain = 0
KDC1 250410Z 31004KT 19/03 A2992 RMK A01 T01850027  RH  035%=      5-min Rain = 0
KDC1 250411Z 32003KT 19/03 A2992 RMK A01 T01850029  RH  036%=      5-min Rain = 0
KDC1 250412Z 34002KT 18/03 A2992 RMK A01 T01840030  RH  036%=      5-min Rain = 0
KDC1 250413Z 03002KT 18/03 A2992 RMK A01 T01840030  RH  036%=      5-min Rain = 0
KDC1 250414Z 07002KT 19/03 A2992 RMK A01 T01850025  RH  035%=      5-min Rain = 0
KDC1 250415Z 08004KT 19/02 A2993 RMK A01 T01880021  RH  033%=      5-min Rain = 0
KDC1 250416Z 10006KT 19/03 A2993 RMK A01 T01900026  RH  034%=      5-min Rain = 0
KDC1 250417Z 11009KT 19/04 A2993 RMK A01 T01910036  RH  036%=      5-min Rain = 0
KDC1 250418Z 11010KT 19/05 A2993 RMK A01 T01860050  RH  041%=      5-min Rain = 0
KDC1 250419Z 12010KT 18/06 A2993 RMK A01 T01760057  RH  045%=      5-min Rain = 0
KDC1 250420Z 11009KT 17/05 A2993 RMK A01 T01680054  RH  047%=      5-min Rain = 0
KDC1 250421Z 11007KT 16/05 A2993 RMK A01 T01640053  RH  048%=      5-min Rain = 0
KDC1 250422Z 11006KT 16/05 A2993 RMK A01 T01610052  RH  048%=      5-min Rain = 0
KDC1 250423Z 11006KT 16/05 A2993 RMK A01 T01590048  RH  047%=      5-min Rain = 0
KDC1 250424Z 12005KT 16/04 A2993 RMK A01 T01600039  RH  044%=      5-min Rain = 0
KDC1 250425Z 11005KT 16/03 A2994 RMK A01 T01640031  RH  041%=      5-min Rain = 0
KDC1 250426Z 11004KT 17/03 A2994 RMK A01 T01680027  RH  039%=      5-min Rain = 0
KDC1 250427Z 11005KT 17/03 A2994 RMK A01 T01720025  RH  037%=      5-min Rain = 0
KDC1 250428Z 11005KT 17/03 A2994 RMK A01 T01740029  RH  038%=      5-min Rain = 0
KDC1 250429Z 11004KT 18/03 A2994 RMK A01 T01750029  RH  037%=      5-min Rain = 0
KDC1 250430Z 11004KT 18/03 A2994 RMK A01 T01760027  RH  037%=      5-min Rain = 0
KDC1 250431Z 11004KT 18/03 A2994 RMK A01 T01770029  RH  037%=      5-min Rain = 0
KDC1 250432Z 11004KT 18/03 A2994 RMK A01 T01780030  RH  037%=      5-min Rain = 0
KDC1 250433Z 11005KT 18/03 A2994 RMK A01 T01790028  RH  037%=      5-min Rain = 0
KDC1 250434Z 11006KT 18/03 A2994 RMK A01 T01790029  RH  036%=      5-min Rain = 0
KDC1 250435Z 11006KT 18/02 A2994 RMK A01 T01800024  RH  035%=      5-min Rain = 0
KDC1 250436Z 11006KT 18/02 A2994 RMK A01 T01820020  RH  034%=      5-min Rain = 0
KDC1 250437Z 11006KT 18/02 A2994 RMK A01 T01830018  RH  033%=      5-min Rain = 0
KDC1 250438Z 12006KT 19/01 A2994 RMK A01 T01850010  RH  031%=      5-min Rain = 0
KDC1 250439Z 11005KT 19/00 A2994 RMK A01 T01880002  RH  029%=      5-min Rain = 0
KDC1 250440Z 11004KT 19/00 A2994 RMK A01 T01900001  RH  028%=      5-min Rain = 0
KDC1 250441Z 11003KT 19/01 A2994 RMK A01 T01920005  RH  029%=      5-min Rain = 0
KDC1 250442Z 11003KT 19/01 A2994 RMK A01 T01920005  RH  028%=      5-min Rain = 0
KDC1 250443Z 10005KT 19/00 A2994 RMK A01 T01930003  RH  028%=      5-min Rain = 0
KDC1 250444Z 10004KT 20/M00 A2994 RMK A01 T01951002  RH  027%=      5-min Rain = 0
KDC1 250445Z 09003KT 20/M01 A2994 RMK A01 T01961007  RH  025%=      5-min Rain = 0
KDC1 250446Z 09003KT 20/M01 A2994 RMK A01 T01981013  RH  024%=      5-min Rain = 0
KDC1 250447Z 09003KT 20/M02 A2994 RMK A01 T02011016  RH  023%=      5-min Rain = 0
KDC1 250448Z 07002KT 20/M01 A2994 RMK A01 T02031014  RH  023%=      5-min Rain = 0
KDC1 250449Z 04002KT 20/01 A2994 RMK A01 T02030007  RH  027%=      5-min Rain = 0
KDC1 250450Z 05002KT 20/00 A2994 RMK A01 T02010002  RH  026%=      5-min Rain = 0
KDC1 250451Z 08003KT 20/M00 A2994 RMK A01 T02011003  RH  025%=      5-min Rain = 0
KDC1 250452Z 07004KT 20/M02 A2994 RMK A01 T02011017  RH  023%=      5-min Rain = 0
KDC1 250453Z 07003KT 20/M02 A2993 RMK A01 T02021015  RH  023%=      5-min Rain = 0
KDC1 250454Z 04002KT 20/00 A2994 RMK A01 T02020003  RH  026%=      5-min Rain = 0
KDC1 250455Z 06002KT 20/00 A2994 RMK A01 T020000-0  RH  026%=      5-min Rain = 0
KDC1 250456Z 05001KT 20/03 A2994 RMK A01 T01980033  RH  034%=      5-min Rain = 0
KDC1 250457Z 34000KT 19/04 A2994 RMK A01 T01940044  RH  037%=      5-min Rain = 0
KDC1 250458Z 34001KT 19/05 A2994 RMK A01 T01900047  RH  039%=      5-min Rain = 0
KDC1 250459Z 33000KT 19/05 A2994 RMK A01 T01870048  RH  040%=      5-min Rain = 0

Page generated in 0.127 seconds.